<?xml version='1.0' encoding='UTF-8'?>
<gpx version="1.1" creator="https://www.komoot.de" xmlns="http://www.topografix.com/GPX/1/1" xmlns:xsi="http://www.w3.org/2001/XMLSchema-instance" xsi:schemaLocation="http://www.topografix.com/GPX/1/1 http://www.topografix.com/GPX/1/1/gpx.xsd">
  <metadata>
    <name>DVV Permanter Wanderweg PW Siener Wind über 10 km</name>
    <author>
      <link href="https://www.komoot.de">
        <text>komoot</text>
        <type>text/html</type>
      </link>
    </author>
  </metadata>
  <trk>
    <name>DVV Permanter Wanderweg PW Siener Wind über 10 km</name>
    <trkseg>
      <trkpt lat="49.695127" lon="7.505650">
        <ele>378.829136</ele>
        <time>2022-03-09T06:43:18.210Z</time>
      </trkpt>
      <trkpt lat="49.695214" lon="7.505736">
        <ele>378.829136</ele>
        <time>2022-03-09T06:43:25.221Z</time>
      </trkpt>
      <trkpt lat="49.695226" lon="7.505882">
        <ele>378.829136</ele>
        <time>2022-03-09T06:43:31.215Z</time>
      </trkpt>
      <trkpt lat="49.695326" lon="7.505953">
        <ele>378.829136</ele>
        <time>2022-03-09T06:44:35.233Z</time>
      </trkpt>
      <trkpt lat="49.695418" lon="7.505926">
        <ele>378.829136</ele>
        <time>2022-03-09T06:44:43.196Z</time>
      </trkpt>
      <trkpt lat="49.695486" lon="7.506017">
        <ele>378.829136</ele>
        <time>2022-03-09T06:44:49.212Z</time>
      </trkpt>
      <trkpt lat="49.695559" lon="7.506122">
        <ele>378.829136</ele>
        <time>2022-03-09T06:44:56.241Z</time>
      </trkpt>
      <trkpt lat="49.695635" lon="7.506207">
        <ele>378.829136</ele>
        <time>2022-03-09T06:45:02.224Z</time>
      </trkpt>
      <trkpt lat="49.695701" lon="7.506309">
        <ele>378.829136</ele>
        <time>2022-03-09T06:45:10.247Z</time>
      </trkpt>
      <trkpt lat="49.695775" lon="7.506408">
        <ele>378.829136</ele>
        <time>2022-03-09T06:45:17.204Z</time>
      </trkpt>
      <trkpt lat="49.695851" lon="7.506497">
        <ele>378.688449</ele>
        <time>2022-03-09T06:45:22.229Z</time>
      </trkpt>
      <trkpt lat="49.695925" lon="7.506577">
        <ele>378.513962</ele>
        <time>2022-03-09T06:45:28.201Z</time>
      </trkpt>
      <trkpt lat="49.695989" lon="7.506702">
        <ele>378.314700</ele>
        <time>2022-03-09T06:45:35.207Z</time>
      </trkpt>
      <trkpt lat="49.696071" lon="7.506788">
        <ele>378.123227</ele>
        <time>2022-03-09T06:45:41.207Z</time>
      </trkpt>
      <trkpt lat="49.696150" lon="7.506878">
        <ele>377.933601</ele>
        <time>2022-03-09T06:45:47.221Z</time>
      </trkpt>
      <trkpt lat="49.696223" lon="7.506987">
        <ele>377.737489</ele>
        <time>2022-03-09T06:45:54.211Z</time>
      </trkpt>
      <trkpt lat="49.696295" lon="7.507090">
        <ele>377.547934</ele>
        <time>2022-03-09T06:46:02.203Z</time>
      </trkpt>
      <trkpt lat="49.696376" lon="7.507185">
        <ele>377.351470</ele>
        <time>2022-03-09T06:46:09.219Z</time>
      </trkpt>
      <trkpt lat="49.696454" lon="7.507287">
        <ele>377.154059</ele>
        <time>2022-03-09T06:46:15.219Z</time>
      </trkpt>
      <trkpt lat="49.696539" lon="7.507383">
        <ele>376.950649</ele>
        <time>2022-03-09T06:46:21.207Z</time>
      </trkpt>
      <trkpt lat="49.696614" lon="7.507490">
        <ele>376.753444</ele>
        <time>2022-03-09T06:46:28.233Z</time>
      </trkpt>
      <trkpt lat="49.696674" lon="7.507602">
        <ele>376.571677</ele>
        <time>2022-03-09T06:46:36.211Z</time>
      </trkpt>
      <trkpt lat="49.696745" lon="7.507716">
        <ele>376.373874</ele>
        <time>2022-03-09T06:46:43.221Z</time>
      </trkpt>
      <trkpt lat="49.696820" lon="7.507809">
        <ele>376.188091</ele>
        <time>2022-03-09T06:46:49.222Z</time>
      </trkpt>
      <trkpt lat="49.696896" lon="7.507883">
        <ele>376.014533</ele>
        <time>2022-03-09T06:46:55.204Z</time>
      </trkpt>
      <trkpt lat="49.696988" lon="7.507925">
        <ele>375.829169</ele>
        <time>2022-03-09T06:47:01.221Z</time>
      </trkpt>
      <trkpt lat="49.697083" lon="7.507998">
        <ele>375.624172</ele>
        <time>2022-03-09T06:47:07.211Z</time>
      </trkpt>
      <trkpt lat="49.697135" lon="7.508125">
        <ele>375.436305</ele>
        <time>2022-03-09T06:47:13.222Z</time>
      </trkpt>
      <trkpt lat="49.697119" lon="7.508274">
        <ele>375.343383</ele>
        <time>2022-03-09T06:47:20.211Z</time>
      </trkpt>
      <trkpt lat="49.697046" lon="7.508384">
        <ele>375.324508</ele>
        <time>2022-03-09T06:47:25.207Z</time>
      </trkpt>
      <trkpt lat="49.696989" lon="7.508520">
        <ele>375.305099</ele>
        <time>2022-03-09T06:47:31.195Z</time>
      </trkpt>
      <trkpt lat="49.696974" lon="7.508666">
        <ele>375.287393</ele>
        <time>2022-03-09T06:47:36.237Z</time>
      </trkpt>
      <trkpt lat="49.696975" lon="7.508815">
        <ele>375.269547</ele>
        <time>2022-03-09T06:47:42.209Z</time>
      </trkpt>
      <trkpt lat="49.696938" lon="7.508951">
        <ele>375.251876</ele>
        <time>2022-03-09T06:47:49.218Z</time>
      </trkpt>
      <trkpt lat="49.696922" lon="7.509097">
        <ele>375.234140</ele>
        <time>2022-03-09T06:47:57.206Z</time>
      </trkpt>
      <trkpt lat="49.696946" lon="7.509241">
        <ele>375.216330</ele>
        <time>2022-03-09T06:48:03.203Z</time>
      </trkpt>
      <trkpt lat="49.696980" lon="7.509385">
        <ele>375.197971</ele>
        <time>2022-03-09T06:48:10.219Z</time>
      </trkpt>
      <trkpt lat="49.697009" lon="7.509538">
        <ele>375.178875</ele>
        <time>2022-03-09T06:48:17.218Z</time>
      </trkpt>
      <trkpt lat="49.697017" lon="7.509682">
        <ele>375.161565</ele>
        <time>2022-03-09T06:48:22.230Z</time>
      </trkpt>
      <trkpt lat="49.697016" lon="7.509835">
        <ele>375.143240</ele>
        <time>2022-03-09T06:48:28.212Z</time>
      </trkpt>
      <trkpt lat="49.696992" lon="7.509981">
        <ele>375.125197</ele>
        <time>2022-03-09T06:48:36.229Z</time>
      </trkpt>
      <trkpt lat="49.696916" lon="7.510059">
        <ele>375.108306</ele>
        <time>2022-03-09T06:48:42.222Z</time>
      </trkpt>
      <trkpt lat="49.696828" lon="7.510120">
        <ele>375.090449</ele>
        <time>2022-03-09T06:48:48.230Z</time>
      </trkpt>
      <trkpt lat="49.696747" lon="7.510205">
        <ele>375.072322</ele>
        <time>2022-03-09T06:48:55.225Z</time>
      </trkpt>
      <trkpt lat="49.696658" lon="7.510282">
        <ele>375.053438</ele>
        <time>2022-03-09T06:49:02.234Z</time>
      </trkpt>
      <trkpt lat="49.696567" lon="7.510286">
        <ele>375.036581</ele>
        <time>2022-03-09T06:49:08.198Z</time>
      </trkpt>
      <trkpt lat="49.696471" lon="7.510272">
        <ele>375.071193</ele>
        <time>2022-03-09T06:49:14.240Z</time>
      </trkpt>
      <trkpt lat="49.696380" lon="7.510228">
        <ele>375.575846</ele>
        <time>2022-03-09T06:49:21.218Z</time>
      </trkpt>
      <trkpt lat="49.696296" lon="7.510163">
        <ele>376.073024</ele>
        <time>2022-03-09T06:49:26.229Z</time>
      </trkpt>
      <trkpt lat="49.696204" lon="7.510105">
        <ele>376.598894</ele>
        <time>2022-03-09T06:49:32.231Z</time>
      </trkpt>
      <trkpt lat="49.696109" lon="7.510060">
        <ele>377.124783</ele>
        <time>2022-03-09T06:49:38.210Z</time>
      </trkpt>
      <trkpt lat="49.696014" lon="7.510007">
        <ele>377.659338</ele>
        <time>2022-03-09T06:49:46.231Z</time>
      </trkpt>
      <trkpt lat="49.695918" lon="7.509972">
        <ele>378.181386</ele>
        <time>2022-03-09T06:49:53.211Z</time>
      </trkpt>
      <trkpt lat="49.695825" lon="7.509945">
        <ele>378.682222</ele>
        <time>2022-03-09T06:50:00.192Z</time>
      </trkpt>
      <trkpt lat="49.695731" lon="7.509911">
        <ele>379.193181</ele>
        <time>2022-03-09T06:50:08.205Z</time>
      </trkpt>
      <trkpt lat="49.695645" lon="7.509848">
        <ele>379.696880</ele>
        <time>2022-03-09T06:50:15.206Z</time>
      </trkpt>
      <trkpt lat="49.695557" lon="7.509807">
        <ele>380.183339</ele>
        <time>2022-03-09T06:50:23.216Z</time>
      </trkpt>
      <trkpt lat="49.695468" lon="7.509768">
        <ele>380.672957</ele>
        <time>2022-03-09T06:50:31.222Z</time>
      </trkpt>
      <trkpt lat="49.695375" lon="7.509736">
        <ele>381.177233</ele>
        <time>2022-03-09T06:50:39.211Z</time>
      </trkpt>
      <trkpt lat="49.695276" lon="7.509694">
        <ele>381.720592</ele>
        <time>2022-03-09T06:50:47.206Z</time>
      </trkpt>
      <trkpt lat="49.695183" lon="7.509646">
        <ele>382.239532</ele>
        <time>2022-03-09T06:50:54.231Z</time>
      </trkpt>
      <trkpt lat="49.695087" lon="7.509620">
        <ele>382.755380</ele>
        <time>2022-03-09T06:51:02.213Z</time>
      </trkpt>
      <trkpt lat="49.694998" lon="7.509583">
        <ele>383.243175</ele>
        <time>2022-03-09T06:51:09.222Z</time>
      </trkpt>
      <trkpt lat="49.694909" lon="7.509547">
        <ele>383.730092</ele>
        <time>2022-03-09T06:51:16.242Z</time>
      </trkpt>
      <trkpt lat="49.694808" lon="7.509587">
        <ele>384.281929</ele>
        <time>2022-03-09T06:51:23.225Z</time>
      </trkpt>
      <trkpt lat="49.694712" lon="7.509628">
        <ele>384.463255</ele>
        <time>2022-03-09T06:51:30.228Z</time>
      </trkpt>
      <trkpt lat="49.694616" lon="7.509671">
        <ele>384.311428</ele>
        <time>2022-03-09T06:51:37.220Z</time>
      </trkpt>
      <trkpt lat="49.694517" lon="7.509700">
        <ele>384.158366</ele>
        <time>2022-03-09T06:51:45.215Z</time>
      </trkpt>
      <trkpt lat="49.694422" lon="7.509720">
        <ele>384.012724</ele>
        <time>2022-03-09T06:51:52.234Z</time>
      </trkpt>
      <trkpt lat="49.694330" lon="7.509732">
        <ele>383.872474</ele>
        <time>2022-03-09T06:51:59.219Z</time>
      </trkpt>
      <trkpt lat="49.694273" lon="7.509624">
        <ele>383.735509</ele>
        <time>2022-03-09T06:52:06.230Z</time>
      </trkpt>
      <trkpt lat="49.694269" lon="7.509476">
        <ele>383.589954</ele>
        <time>2022-03-09T06:52:12.220Z</time>
      </trkpt>
      <trkpt lat="49.694255" lon="7.509334">
        <ele>383.448810</ele>
        <time>2022-03-09T06:52:18.223Z</time>
      </trkpt>
      <trkpt lat="49.694237" lon="7.509181">
        <ele>383.296002</ele>
        <time>2022-03-09T06:52:25.209Z</time>
      </trkpt>
      <trkpt lat="49.694231" lon="7.509018">
        <ele>383.135575</ele>
        <time>2022-03-09T06:52:32.234Z</time>
      </trkpt>
      <trkpt lat="49.694213" lon="7.508864">
        <ele>382.981800</ele>
        <time>2022-03-09T06:52:38.224Z</time>
      </trkpt>
      <trkpt lat="49.694194" lon="7.508714">
        <ele>382.831607</ele>
        <time>2022-03-09T06:52:45.202Z</time>
      </trkpt>
      <trkpt lat="49.694170" lon="7.508579">
        <ele>382.694034</ele>
        <time>2022-03-09T06:52:51.206Z</time>
      </trkpt>
      <trkpt lat="49.694156" lon="7.508433">
        <ele>382.549003</ele>
        <time>2022-03-09T06:52:58.237Z</time>
      </trkpt>
      <trkpt lat="49.694146" lon="7.508275">
        <ele>382.393007</ele>
        <time>2022-03-09T06:53:05.203Z</time>
      </trkpt>
      <trkpt lat="49.694131" lon="7.508121">
        <ele>382.239976</ele>
        <time>2022-03-09T06:53:12.225Z</time>
      </trkpt>
      <trkpt lat="49.694113" lon="7.507978">
        <ele>382.096825</ele>
        <time>2022-03-09T06:53:18.234Z</time>
      </trkpt>
      <trkpt lat="49.694097" lon="7.507829">
        <ele>381.948410</ele>
        <time>2022-03-09T06:53:25.222Z</time>
      </trkpt>
      <trkpt lat="49.694083" lon="7.507691">
        <ele>381.811150</ele>
        <time>2022-03-09T06:53:31.217Z</time>
      </trkpt>
      <trkpt lat="49.694091" lon="7.507546">
        <ele>382.453505</ele>
        <time>2022-03-09T06:53:37.228Z</time>
      </trkpt>
      <trkpt lat="49.694150" lon="7.507440">
        <ele>383.086999</ele>
        <time>2022-03-09T06:53:43.227Z</time>
      </trkpt>
      <trkpt lat="49.694216" lon="7.507336">
        <ele>383.747007</ele>
        <time>2022-03-09T06:53:51.209Z</time>
      </trkpt>
      <trkpt lat="49.694178" lon="7.507188">
        <ele>384.468354</ele>
        <time>2022-03-09T06:53:59.207Z</time>
      </trkpt>
      <trkpt lat="49.694090" lon="7.507146">
        <ele>385.113339</ele>
        <time>2022-03-09T06:54:04.220Z</time>
      </trkpt>
      <trkpt lat="49.694010" lon="7.507224">
        <ele>385.775719</ele>
        <time>2022-03-09T06:54:11.258Z</time>
      </trkpt>
      <trkpt lat="49.693941" lon="7.507315">
        <ele>386.410897</ele>
        <time>2022-03-09T06:54:18.221Z</time>
      </trkpt>
      <trkpt lat="49.693857" lon="7.507367">
        <ele>387.044581</ele>
        <time>2022-03-09T06:54:25.209Z</time>
      </trkpt>
      <trkpt lat="49.693767" lon="7.507400">
        <ele>387.692357</ele>
        <time>2022-03-09T06:54:32.229Z</time>
      </trkpt>
      <trkpt lat="49.693664" lon="7.507406">
        <ele>388.414201</ele>
        <time>2022-03-09T06:54:39.233Z</time>
      </trkpt>
      <trkpt lat="49.693565" lon="7.507378">
        <ele>389.119028</ele>
        <time>2022-03-09T06:54:48.238Z</time>
      </trkpt>
      <trkpt lat="49.693477" lon="7.507337">
        <ele>389.762693</ele>
        <time>2022-03-09T06:54:55.193Z</time>
      </trkpt>
      <trkpt lat="49.693410" lon="7.507457">
        <ele>390.480811</ele>
        <time>2022-03-09T06:55:03.209Z</time>
      </trkpt>
      <trkpt lat="49.693367" lon="7.507584">
        <ele>391.130195</ele>
        <time>2022-03-09T06:55:09.205Z</time>
      </trkpt>
      <trkpt lat="49.693286" lon="7.507670">
        <ele>391.818361</ele>
        <time>2022-03-09T06:55:17.216Z</time>
      </trkpt>
      <trkpt lat="49.693203" lon="7.507738">
        <ele>392.476214</ele>
        <time>2022-03-09T06:55:25.209Z</time>
      </trkpt>
      <trkpt lat="49.693112" lon="7.507799">
        <ele>393.170843</ele>
        <time>2022-03-09T06:55:32.233Z</time>
      </trkpt>
      <trkpt lat="49.693024" lon="7.507846">
        <ele>393.822871</ele>
        <time>2022-03-09T06:55:38.272Z</time>
      </trkpt>
      <trkpt lat="49.692928" lon="7.507887">
        <ele>394.492824</ele>
        <time>2022-03-09T06:55:45.223Z</time>
      </trkpt>
      <trkpt lat="49.692828" lon="7.507925">
        <ele>395.042664</ele>
        <time>2022-03-09T06:55:52.240Z</time>
      </trkpt>
      <trkpt lat="49.692738" lon="7.507960">
        <ele>395.538186</ele>
        <time>2022-03-09T06:55:59.220Z</time>
      </trkpt>
      <trkpt lat="49.692648" lon="7.507999">
        <ele>396.037260</ele>
        <time>2022-03-09T06:56:05.221Z</time>
      </trkpt>
      <trkpt lat="49.692545" lon="7.507992">
        <ele>396.587753</ele>
        <time>2022-03-09T06:56:13.205Z</time>
      </trkpt>
      <trkpt lat="49.692448" lon="7.508010">
        <ele>397.109398</ele>
        <time>2022-03-09T06:56:19.212Z</time>
      </trkpt>
      <trkpt lat="49.692348" lon="7.508031">
        <ele>397.648246</ele>
        <time>2022-03-09T06:56:26.206Z</time>
      </trkpt>
      <trkpt lat="49.692249" lon="7.508027">
        <ele>398.177032</ele>
        <time>2022-03-09T06:56:33.204Z</time>
      </trkpt>
      <trkpt lat="49.692158" lon="7.508010">
        <ele>398.666456</ele>
        <time>2022-03-09T06:56:40.244Z</time>
      </trkpt>
      <trkpt lat="49.692057" lon="7.508014">
        <ele>399.205917</ele>
        <time>2022-03-09T06:56:47.216Z</time>
      </trkpt>
      <trkpt lat="49.691960" lon="7.508006">
        <ele>399.724580</ele>
        <time>2022-03-09T06:56:54.201Z</time>
      </trkpt>
      <trkpt lat="49.691864" lon="7.508016">
        <ele>400.238329</ele>
        <time>2022-03-09T06:57:01.220Z</time>
      </trkpt>
      <trkpt lat="49.691768" lon="7.508020">
        <ele>400.751102</ele>
        <time>2022-03-09T06:57:08.222Z</time>
      </trkpt>
      <trkpt lat="49.691674" lon="7.508010">
        <ele>401.254196</ele>
        <time>2022-03-09T06:57:16.227Z</time>
      </trkpt>
      <trkpt lat="49.691576" lon="7.508023">
        <ele>401.779385</ele>
        <time>2022-03-09T06:57:23.213Z</time>
      </trkpt>
      <trkpt lat="49.691473" lon="7.508019">
        <ele>402.329521</ele>
        <time>2022-03-09T06:57:30.246Z</time>
      </trkpt>
      <trkpt lat="49.691382" lon="7.508025">
        <ele>402.815852</ele>
        <time>2022-03-09T06:57:37.213Z</time>
      </trkpt>
      <trkpt lat="49.691290" lon="7.508012">
        <ele>403.309129</ele>
        <time>2022-03-09T06:57:43.195Z</time>
      </trkpt>
      <trkpt lat="49.691187" lon="7.508006">
        <ele>403.859482</ele>
        <time>2022-03-09T06:57:50.201Z</time>
      </trkpt>
      <trkpt lat="49.691123" lon="7.508125">
        <ele>404.327557</ele>
        <time>2022-03-09T06:58:33.216Z</time>
      </trkpt>
      <trkpt lat="49.691068" lon="7.508239">
        <ele>404.734160</ele>
        <time>2022-03-09T06:58:39.194Z</time>
      </trkpt>
      <trkpt lat="49.691013" lon="7.508357">
        <ele>405.149988</ele>
        <time>2022-03-09T06:58:46.200Z</time>
      </trkpt>
      <trkpt lat="49.690952" lon="7.508474">
        <ele>405.579625</ele>
        <time>2022-03-09T06:58:52.224Z</time>
      </trkpt>
      <trkpt lat="49.690907" lon="7.508621">
        <ele>406.044600</ele>
        <time>2022-03-09T06:58:58.225Z</time>
      </trkpt>
      <trkpt lat="49.690874" lon="7.508758">
        <ele>406.462575</ele>
        <time>2022-03-09T06:59:04.256Z</time>
      </trkpt>
      <trkpt lat="49.690872" lon="7.508908">
        <ele>406.891537</ele>
        <time>2022-03-09T06:59:12.232Z</time>
      </trkpt>
      <trkpt lat="49.690860" lon="7.509046">
        <ele>407.289647</ele>
        <time>2022-03-09T06:59:18.218Z</time>
      </trkpt>
      <trkpt lat="49.690854" lon="7.509186">
        <ele>407.690805</ele>
        <time>2022-03-09T06:59:24.240Z</time>
      </trkpt>
      <trkpt lat="49.690840" lon="7.509341">
        <ele>408.138271</ele>
        <time>2022-03-09T06:59:30.247Z</time>
      </trkpt>
      <trkpt lat="49.690836" lon="7.509491">
        <ele>408.567506</ele>
        <time>2022-03-09T06:59:37.228Z</time>
      </trkpt>
      <trkpt lat="49.690844" lon="7.509643">
        <ele>409.003532</ele>
        <time>2022-03-09T06:59:44.219Z</time>
      </trkpt>
      <trkpt lat="49.690850" lon="7.509783">
        <ele>409.404690</ele>
        <time>2022-03-09T06:59:51.244Z</time>
      </trkpt>
      <trkpt lat="49.690875" lon="7.509927">
        <ele>409.830975</ele>
        <time>2022-03-09T06:59:58.233Z</time>
      </trkpt>
      <trkpt lat="49.690908" lon="7.510062">
        <ele>410.243595</ele>
        <time>2022-03-09T07:00:05.242Z</time>
      </trkpt>
      <trkpt lat="49.690923" lon="7.510199">
        <ele>410.640868</ele>
        <time>2022-03-09T07:00:11.222Z</time>
      </trkpt>
      <trkpt lat="49.690922" lon="7.510355">
        <ele>411.086916</ele>
        <time>2022-03-09T07:00:18.214Z</time>
      </trkpt>
      <trkpt lat="49.690933" lon="7.510506">
        <ele>411.521374</ele>
        <time>2022-03-09T07:00:26.246Z</time>
      </trkpt>
      <trkpt lat="49.690938" lon="7.510655">
        <ele>411.947959</ele>
        <time>2022-03-09T07:00:33.197Z</time>
      </trkpt>
      <trkpt lat="49.690908" lon="7.510788">
        <ele>412.446096</ele>
        <time>2022-03-09T07:00:40.209Z</time>
      </trkpt>
      <trkpt lat="49.690885" lon="7.510931">
        <ele>412.969675</ele>
        <time>2022-03-09T07:00:47.207Z</time>
      </trkpt>
      <trkpt lat="49.690850" lon="7.511066">
        <ele>413.486448</ele>
        <time>2022-03-09T07:00:54.240Z</time>
      </trkpt>
      <trkpt lat="49.690825" lon="7.511199">
        <ele>413.978573</ele>
        <time>2022-03-09T07:01:01.221Z</time>
      </trkpt>
      <trkpt lat="49.690821" lon="7.511348">
        <ele>414.508459</ele>
        <time>2022-03-09T07:01:09.241Z</time>
      </trkpt>
      <trkpt lat="49.690798" lon="7.511489">
        <ele>415.025146</ele>
        <time>2022-03-09T07:01:16.250Z</time>
      </trkpt>
      <trkpt lat="49.690767" lon="7.511625">
        <ele>415.537505</ele>
        <time>2022-03-09T07:01:24.243Z</time>
      </trkpt>
      <trkpt lat="49.690731" lon="7.511764">
        <ele>416.069516</ele>
        <time>2022-03-09T07:01:32.257Z</time>
      </trkpt>
      <trkpt lat="49.690694" lon="7.511897">
        <ele>416.583940</ele>
        <time>2022-03-09T07:01:39.240Z</time>
      </trkpt>
      <trkpt lat="49.690657" lon="7.512025">
        <ele>417.082094</ele>
        <time>2022-03-09T07:01:46.255Z</time>
      </trkpt>
      <trkpt lat="49.690625" lon="7.512155">
        <ele>417.576325</ele>
        <time>2022-03-09T07:01:53.226Z</time>
      </trkpt>
      <trkpt lat="49.690587" lon="7.512300">
        <ele>418.132216</ele>
        <time>2022-03-09T07:02:00.220Z</time>
      </trkpt>
      <trkpt lat="49.690569" lon="7.512448">
        <ele>418.667309</ele>
        <time>2022-03-09T07:02:07.233Z</time>
      </trkpt>
      <trkpt lat="49.690548" lon="7.512599">
        <ele>419.216108</ele>
        <time>2022-03-09T07:02:14.239Z</time>
      </trkpt>
      <trkpt lat="49.690533" lon="7.512745">
        <ele>419.741383</ele>
        <time>2022-03-09T07:02:20.235Z</time>
      </trkpt>
      <trkpt lat="49.690519" lon="7.512896">
        <ele>420.283406</ele>
        <time>2022-03-09T07:02:27.238Z</time>
      </trkpt>
      <trkpt lat="49.690491" lon="7.513053">
        <ele>420.862077</ele>
        <time>2022-03-09T07:02:34.221Z</time>
      </trkpt>
      <trkpt lat="49.690471" lon="7.513209">
        <ele>421.427165</ele>
        <time>2022-03-09T07:02:41.253Z</time>
      </trkpt>
      <trkpt lat="49.690431" lon="7.513347">
        <ele>421.937869</ele>
        <time>2022-03-09T07:02:47.224Z</time>
      </trkpt>
      <trkpt lat="49.690386" lon="7.513471">
        <ele>422.337724</ele>
        <time>2022-03-09T07:02:53.222Z</time>
      </trkpt>
      <trkpt lat="49.690329" lon="7.513586">
        <ele>422.745160</ele>
        <time>2022-03-09T07:02:59.243Z</time>
      </trkpt>
      <trkpt lat="49.690284" lon="7.513721">
        <ele>423.172266</ele>
        <time>2022-03-09T07:03:06.241Z</time>
      </trkpt>
      <trkpt lat="49.690232" lon="7.513839">
        <ele>423.573804</ele>
        <time>2022-03-09T07:03:12.245Z</time>
      </trkpt>
      <trkpt lat="49.690177" lon="7.513957">
        <ele>423.982828</ele>
        <time>2022-03-09T07:03:18.232Z</time>
      </trkpt>
      <trkpt lat="49.690124" lon="7.514097">
        <ele>424.439021</ele>
        <time>2022-03-09T07:03:25.236Z</time>
      </trkpt>
      <trkpt lat="49.690074" lon="7.514241">
        <ele>424.898648</ele>
        <time>2022-03-09T07:03:32.238Z</time>
      </trkpt>
      <trkpt lat="49.690029" lon="7.514374">
        <ele>425.320763</ele>
        <time>2022-03-09T07:03:38.236Z</time>
      </trkpt>
      <trkpt lat="49.689971" lon="7.514482">
        <ele>425.715519</ele>
        <time>2022-03-09T07:03:44.233Z</time>
      </trkpt>
      <trkpt lat="49.689906" lon="7.514577">
        <ele>426.104405</ele>
        <time>2022-03-09T07:03:50.324Z</time>
      </trkpt>
      <trkpt lat="49.689822" lon="7.514643">
        <ele>426.514046</ele>
        <time>2022-03-09T07:03:58.226Z</time>
      </trkpt>
      <trkpt lat="49.689735" lon="7.514720">
        <ele>426.949871</ele>
        <time>2022-03-09T07:04:06.252Z</time>
      </trkpt>
      <trkpt lat="49.689657" lon="7.514826">
        <ele>427.401373</ele>
        <time>2022-03-09T07:04:13.232Z</time>
      </trkpt>
      <trkpt lat="49.689574" lon="7.514913">
        <ele>427.837336</ele>
        <time>2022-03-09T07:04:20.217Z</time>
      </trkpt>
      <trkpt lat="49.689490" lon="7.514984">
        <ele>428.253538</ele>
        <time>2022-03-09T07:04:27.234Z</time>
      </trkpt>
      <trkpt lat="49.689398" lon="7.515054">
        <ele>428.699318</ele>
        <time>2022-03-09T07:04:35.230Z</time>
      </trkpt>
      <trkpt lat="49.689307" lon="7.515122">
        <ele>429.138724</ele>
        <time>2022-03-09T07:04:42.307Z</time>
      </trkpt>
      <trkpt lat="49.689222" lon="7.515187">
        <ele>429.550992</ele>
        <time>2022-03-09T07:04:49.225Z</time>
      </trkpt>
      <trkpt lat="49.689137" lon="7.515263">
        <ele>429.441961</ele>
        <time>2022-03-09T07:04:55.233Z</time>
      </trkpt>
      <trkpt lat="49.689053" lon="7.515330">
        <ele>429.168488</ele>
        <time>2022-03-09T07:05:02.256Z</time>
      </trkpt>
      <trkpt lat="49.688970" lon="7.515386">
        <ele>428.906476</ele>
        <time>2022-03-09T07:05:08.232Z</time>
      </trkpt>
      <trkpt lat="49.688885" lon="7.515451">
        <ele>428.632108</ele>
        <time>2022-03-09T07:05:14.227Z</time>
      </trkpt>
      <trkpt lat="49.688799" lon="7.515526">
        <ele>428.346428</ele>
        <time>2022-03-09T07:05:20.229Z</time>
      </trkpt>
      <trkpt lat="49.688716" lon="7.515582">
        <ele>428.084416</ele>
        <time>2022-03-09T07:05:26.229Z</time>
      </trkpt>
      <trkpt lat="49.688618" lon="7.515622">
        <ele>427.791167</ele>
        <time>2022-03-09T07:05:33.212Z</time>
      </trkpt>
      <trkpt lat="49.688526" lon="7.515658">
        <ele>427.516599</ele>
        <time>2022-03-09T07:05:40.243Z</time>
      </trkpt>
      <trkpt lat="49.688425" lon="7.515688">
        <ele>427.219043</ele>
        <time>2022-03-09T07:05:47.228Z</time>
      </trkpt>
      <trkpt lat="49.688331" lon="7.515742">
        <ele>426.928910</ele>
        <time>2022-03-09T07:05:53.238Z</time>
      </trkpt>
      <trkpt lat="49.688226" lon="7.515749">
        <ele>426.624845</ele>
        <time>2022-03-09T07:06:00.240Z</time>
      </trkpt>
      <trkpt lat="49.688139" lon="7.515674">
        <ele>426.336640</ele>
        <time>2022-03-09T07:06:06.203Z</time>
      </trkpt>
      <trkpt lat="49.688096" lon="7.515527">
        <ele>426.034677</ele>
        <time>2022-03-09T07:06:12.218Z</time>
      </trkpt>
      <trkpt lat="49.688073" lon="7.515374">
        <ele>425.740673</ele>
        <time>2022-03-09T07:06:18.240Z</time>
      </trkpt>
      <trkpt lat="49.688059" lon="7.515224">
        <ele>425.457007</ele>
        <time>2022-03-09T07:06:25.207Z</time>
      </trkpt>
      <trkpt lat="49.688030" lon="7.515069">
        <ele>425.155000</ele>
        <time>2022-03-09T07:06:32.232Z</time>
      </trkpt>
      <trkpt lat="49.688012" lon="7.514927">
        <ele>424.884160</ele>
        <time>2022-03-09T07:06:38.235Z</time>
      </trkpt>
      <trkpt lat="49.687989" lon="7.514792">
        <ele>424.622860</ele>
        <time>2022-03-09T07:06:44.231Z</time>
      </trkpt>
      <trkpt lat="49.687944" lon="7.514653">
        <ele>424.515415</ele>
        <time>2022-03-09T07:06:51.235Z</time>
      </trkpt>
      <trkpt lat="49.687920" lon="7.514510">
        <ele>424.660321</ele>
        <time>2022-03-09T07:06:57.240Z</time>
      </trkpt>
      <trkpt lat="49.687896" lon="7.514362">
        <ele>424.809979</ele>
        <time>2022-03-09T07:07:04.309Z</time>
      </trkpt>
      <trkpt lat="49.687866" lon="7.514210">
        <ele>424.965854</ele>
        <time>2022-03-09T07:07:11.207Z</time>
      </trkpt>
      <trkpt lat="49.687832" lon="7.514071">
        <ele>425.111613</ele>
        <time>2022-03-09T07:07:18.240Z</time>
      </trkpt>
      <trkpt lat="49.687803" lon="7.513922">
        <ele>425.264232</ele>
        <time>2022-03-09T07:07:26.228Z</time>
      </trkpt>
      <trkpt lat="49.687776" lon="7.513785">
        <ele>425.404707</ele>
        <time>2022-03-09T07:07:32.255Z</time>
      </trkpt>
      <trkpt lat="49.687751" lon="7.513649">
        <ele>425.543385</ele>
        <time>2022-03-09T07:07:38.248Z</time>
      </trkpt>
      <trkpt lat="49.687716" lon="7.513500">
        <ele>425.698869</ele>
        <time>2022-03-09T07:07:45.246Z</time>
      </trkpt>
      <trkpt lat="49.687690" lon="7.513350">
        <ele>425.851187</ele>
        <time>2022-03-09T07:07:51.229Z</time>
      </trkpt>
      <trkpt lat="49.687676" lon="7.513192">
        <ele>426.007611</ele>
        <time>2022-03-09T07:07:58.225Z</time>
      </trkpt>
      <trkpt lat="49.687648" lon="7.513051">
        <ele>426.152281</ele>
        <time>2022-03-09T07:08:04.230Z</time>
      </trkpt>
      <trkpt lat="49.687610" lon="7.512904">
        <ele>426.307553</ele>
        <time>2022-03-09T07:08:10.238Z</time>
      </trkpt>
      <trkpt lat="49.687582" lon="7.512770">
        <ele>426.445674</ele>
        <time>2022-03-09T07:08:16.242Z</time>
      </trkpt>
      <trkpt lat="49.687552" lon="7.512621">
        <ele>426.598738</ele>
        <time>2022-03-09T07:08:23.243Z</time>
      </trkpt>
      <trkpt lat="49.687529" lon="7.512477">
        <ele>426.744223</ele>
        <time>2022-03-09T07:08:30.238Z</time>
      </trkpt>
      <trkpt lat="49.687508" lon="7.512337">
        <ele>426.885188</ele>
        <time>2022-03-09T07:08:36.252Z</time>
      </trkpt>
      <trkpt lat="49.687493" lon="7.512183">
        <ele>427.037944</ele>
        <time>2022-03-09T07:08:42.241Z</time>
      </trkpt>
      <trkpt lat="49.687460" lon="7.512047">
        <ele>427.180334</ele>
        <time>2022-03-09T07:08:48.243Z</time>
      </trkpt>
      <trkpt lat="49.687429" lon="7.511893">
        <ele>427.326941</ele>
        <time>2022-03-09T07:08:55.235Z</time>
      </trkpt>
      <trkpt lat="49.687391" lon="7.511759">
        <ele>427.459937</ele>
        <time>2022-03-09T07:09:01.255Z</time>
      </trkpt>
      <trkpt lat="49.687360" lon="7.511615">
        <ele>427.597891</ele>
        <time>2022-03-09T07:09:08.290Z</time>
      </trkpt>
      <trkpt lat="49.687330" lon="7.511458">
        <ele>427.746701</ele>
        <time>2022-03-09T07:09:15.239Z</time>
      </trkpt>
      <trkpt lat="49.687295" lon="7.511314">
        <ele>427.886532</ele>
        <time>2022-03-09T07:09:21.233Z</time>
      </trkpt>
      <trkpt lat="49.687273" lon="7.511170">
        <ele>428.021030</ele>
        <time>2022-03-09T07:09:27.243Z</time>
      </trkpt>
      <trkpt lat="49.687238" lon="7.511033">
        <ele>428.154923</ele>
        <time>2022-03-09T07:09:33.253Z</time>
      </trkpt>
      <trkpt lat="49.687202" lon="7.510890">
        <ele>428.294407</ele>
        <time>2022-03-09T07:09:39.244Z</time>
      </trkpt>
      <trkpt lat="49.687169" lon="7.510741">
        <ele>428.437566</ele>
        <time>2022-03-09T07:09:46.228Z</time>
      </trkpt>
      <trkpt lat="49.687145" lon="7.510601">
        <ele>428.569221</ele>
        <time>2022-03-09T07:09:52.235Z</time>
      </trkpt>
      <trkpt lat="49.687117" lon="7.510469">
        <ele>428.695496</ele>
        <time>2022-03-09T07:09:58.234Z</time>
      </trkpt>
      <trkpt lat="49.687081" lon="7.510322">
        <ele>428.838374</ele>
        <time>2022-03-09T07:10:04.225Z</time>
      </trkpt>
      <trkpt lat="49.687047" lon="7.510187">
        <ele>428.970062</ele>
        <time>2022-03-09T07:10:10.218Z</time>
      </trkpt>
      <trkpt lat="49.687022" lon="7.510045">
        <ele>429.103837</ele>
        <time>2022-03-09T07:10:16.206Z</time>
      </trkpt>
      <trkpt lat="49.686987" lon="7.509917">
        <ele>429.230157</ele>
        <time>2022-03-09T07:10:22.218Z</time>
      </trkpt>
      <trkpt lat="49.686946" lon="7.509769">
        <ele>429.376507</ele>
        <time>2022-03-09T07:10:29.234Z</time>
      </trkpt>
      <trkpt lat="49.686912" lon="7.509619">
        <ele>429.520986</ele>
        <time>2022-03-09T07:10:36.208Z</time>
      </trkpt>
      <trkpt lat="49.686876" lon="7.509482">
        <ele>429.655403</ele>
        <time>2022-03-09T07:10:43.243Z</time>
      </trkpt>
      <trkpt lat="49.686852" lon="7.509334">
        <ele>429.666377</ele>
        <time>2022-03-09T07:10:49.231Z</time>
      </trkpt>
      <trkpt lat="49.686810" lon="7.509202">
        <ele>429.605147</ele>
        <time>2022-03-09T07:10:55.323Z</time>
      </trkpt>
      <trkpt lat="49.686775" lon="7.509071">
        <ele>429.546152</ele>
        <time>2022-03-09T07:11:01.236Z</time>
      </trkpt>
      <trkpt lat="49.686748" lon="7.508939">
        <ele>429.488526</ele>
        <time>2022-03-09T07:11:07.235Z</time>
      </trkpt>
      <trkpt lat="49.686727" lon="7.508802">
        <ele>429.429921</ele>
        <time>2022-03-09T07:11:21.200Z</time>
      </trkpt>
      <trkpt lat="49.686673" lon="7.508661">
        <ele>429.361717</ele>
        <time>2022-03-09T07:11:27.201Z</time>
      </trkpt>
      <trkpt lat="49.686642" lon="7.508512">
        <ele>429.296568</ele>
        <time>2022-03-09T07:11:35.247Z</time>
      </trkpt>
      <trkpt lat="49.686606" lon="7.508374">
        <ele>429.234631</ele>
        <time>2022-03-09T07:11:40.238Z</time>
      </trkpt>
      <trkpt lat="49.686581" lon="7.508227">
        <ele>429.171364</ele>
        <time>2022-03-09T07:11:46.239Z</time>
      </trkpt>
      <trkpt lat="49.686548" lon="7.508079">
        <ele>429.106202</ele>
        <time>2022-03-09T07:11:53.255Z</time>
      </trkpt>
      <trkpt lat="49.686524" lon="7.507937">
        <ele>429.045111</ele>
        <time>2022-03-09T07:12:00.240Z</time>
      </trkpt>
      <trkpt lat="49.686487" lon="7.507791">
        <ele>428.979842</ele>
        <time>2022-03-09T07:12:07.227Z</time>
      </trkpt>
      <trkpt lat="49.686458" lon="7.507645">
        <ele>428.916270</ele>
        <time>2022-03-09T07:12:13.218Z</time>
      </trkpt>
      <trkpt lat="49.686442" lon="7.507504">
        <ele>428.856682</ele>
        <time>2022-03-09T07:12:19.215Z</time>
      </trkpt>
      <trkpt lat="49.686412" lon="7.507371">
        <ele>428.798052</ele>
        <time>2022-03-09T07:12:25.246Z</time>
      </trkpt>
      <trkpt lat="49.686393" lon="7.507223">
        <ele>428.735246</ele>
        <time>2022-03-09T07:12:32.268Z</time>
      </trkpt>
      <trkpt lat="49.686368" lon="7.507072">
        <ele>428.670366</ele>
        <time>2022-03-09T07:12:39.235Z</time>
      </trkpt>
      <trkpt lat="49.686336" lon="7.506930">
        <ele>428.607775</ele>
        <time>2022-03-09T07:12:46.265Z</time>
      </trkpt>
      <trkpt lat="49.686321" lon="7.506789">
        <ele>428.543780</ele>
        <time>2022-03-09T07:12:52.244Z</time>
      </trkpt>
      <trkpt lat="49.686272" lon="7.506669">
        <ele>428.210740</ele>
        <time>2022-03-09T07:12:58.218Z</time>
      </trkpt>
      <trkpt lat="49.686172" lon="7.506641">
        <ele>427.842074</ele>
        <time>2022-03-09T07:13:04.207Z</time>
      </trkpt>
      <trkpt lat="49.686071" lon="7.506646">
        <ele>427.475496</ele>
        <time>2022-03-09T07:13:11.212Z</time>
      </trkpt>
      <trkpt lat="49.685971" lon="7.506650">
        <ele>427.112613</ele>
        <time>2022-03-09T07:13:17.236Z</time>
      </trkpt>
      <trkpt lat="49.685873" lon="7.506641">
        <ele>426.756479</ele>
        <time>2022-03-09T07:13:23.232Z</time>
      </trkpt>
      <trkpt lat="49.685776" lon="7.506638">
        <ele>426.404530</ele>
        <time>2022-03-09T07:13:30.232Z</time>
      </trkpt>
      <trkpt lat="49.685680" lon="7.506629">
        <ele>426.055638</ele>
        <time>2022-03-09T07:13:36.234Z</time>
      </trkpt>
      <trkpt lat="49.685586" lon="7.506609">
        <ele>425.711426</ele>
        <time>2022-03-09T07:13:42.240Z</time>
      </trkpt>
      <trkpt lat="49.685412" lon="7.506584">
        <ele>425.077499</ele>
        <time>2022-03-09T07:14:17.253Z</time>
      </trkpt>
      <trkpt lat="49.685323" lon="7.506614">
        <ele>424.747052</ele>
        <time>2022-03-09T07:14:23.227Z</time>
      </trkpt>
      <trkpt lat="49.685234" lon="7.506676">
        <ele>424.392916</ele>
        <time>2022-03-09T07:14:30.247Z</time>
      </trkpt>
      <trkpt lat="49.685142" lon="7.506738">
        <ele>424.028832</ele>
        <time>2022-03-09T07:14:36.326Z</time>
      </trkpt>
      <trkpt lat="49.685058" lon="7.506801">
        <ele>423.690132</ele>
        <time>2022-03-09T07:14:42.205Z</time>
      </trkpt>
      <trkpt lat="49.684975" lon="7.506870">
        <ele>423.348250</ele>
        <time>2022-03-09T07:14:48.236Z</time>
      </trkpt>
      <trkpt lat="49.684899" lon="7.506945">
        <ele>423.021148</ele>
        <time>2022-03-09T07:14:54.232Z</time>
      </trkpt>
      <trkpt lat="49.684811" lon="7.506992">
        <ele>422.683396</ele>
        <time>2022-03-09T07:15:00.244Z</time>
      </trkpt>
      <trkpt lat="49.684716" lon="7.507054">
        <ele>422.309309</ele>
        <time>2022-03-09T07:15:07.241Z</time>
      </trkpt>
      <trkpt lat="49.684620" lon="7.507119">
        <ele>422.113044</ele>
        <time>2022-03-09T07:15:13.239Z</time>
      </trkpt>
      <trkpt lat="49.684538" lon="7.507188">
        <ele>422.427597</ele>
        <time>2022-03-09T07:15:19.252Z</time>
      </trkpt>
      <trkpt lat="49.684448" lon="7.507254">
        <ele>422.763212</ele>
        <time>2022-03-09T07:15:26.262Z</time>
      </trkpt>
      <trkpt lat="49.684366" lon="7.507311">
        <ele>423.066130</ele>
        <time>2022-03-09T07:15:32.233Z</time>
      </trkpt>
      <trkpt lat="49.684284" lon="7.507374">
        <ele>423.374643</ele>
        <time>2022-03-09T07:15:38.235Z</time>
      </trkpt>
      <trkpt lat="49.684187" lon="7.507438">
        <ele>423.729974</ele>
        <time>2022-03-09T07:15:45.230Z</time>
      </trkpt>
      <trkpt lat="49.684101" lon="7.507511">
        <ele>424.060535</ele>
        <time>2022-03-09T07:15:51.232Z</time>
      </trkpt>
      <trkpt lat="49.684011" lon="7.507599">
        <ele>424.419333</ele>
        <time>2022-03-09T07:15:57.244Z</time>
      </trkpt>
      <trkpt lat="49.683954" lon="7.507715">
        <ele>424.736846</ele>
        <time>2022-03-09T07:16:02.199Z</time>
      </trkpt>
      <trkpt lat="49.683936" lon="7.507860">
        <ele>425.058682</ele>
        <time>2022-03-09T07:16:08.201Z</time>
      </trkpt>
      <trkpt lat="49.683947" lon="7.508010">
        <ele>425.387746</ele>
        <time>2022-03-09T07:16:18.243Z</time>
      </trkpt>
      <trkpt lat="49.683973" lon="7.508153">
        <ele>425.711532</ele>
        <time>2022-03-09T07:16:24.257Z</time>
      </trkpt>
      <trkpt lat="49.683967" lon="7.508300">
        <ele>426.032600</ele>
        <time>2022-03-09T07:16:30.222Z</time>
      </trkpt>
      <trkpt lat="49.683993" lon="7.508449">
        <ele>426.368995</ele>
        <time>2022-03-09T07:16:38.229Z</time>
      </trkpt>
      <trkpt lat="49.684014" lon="7.508607">
        <ele>426.720595</ele>
        <time>2022-03-09T07:16:45.252Z</time>
      </trkpt>
      <trkpt lat="49.684030" lon="7.508758">
        <ele>427.054129</ele>
        <time>2022-03-09T07:16:53.230Z</time>
      </trkpt>
      <trkpt lat="49.684018" lon="7.508912">
        <ele>427.392244</ele>
        <time>2022-03-09T07:17:00.242Z</time>
      </trkpt>
      <trkpt lat="49.684007" lon="7.509068">
        <ele>427.734306</ele>
        <time>2022-03-09T07:17:07.255Z</time>
      </trkpt>
      <trkpt lat="49.684007" lon="7.509227">
        <ele>428.080894</ele>
        <time>2022-03-09T07:17:14.256Z</time>
      </trkpt>
      <trkpt lat="49.684003" lon="7.509375">
        <ele>428.222454</ele>
        <time>2022-03-09T07:17:20.252Z</time>
      </trkpt>
      <trkpt lat="49.684000" lon="7.509531">
        <ele>428.369605</ele>
        <time>2022-03-09T07:17:27.226Z</time>
      </trkpt>
      <trkpt lat="49.684008" lon="7.509692">
        <ele>428.521851</ele>
        <time>2022-03-09T07:17:34.239Z</time>
      </trkpt>
      <trkpt lat="49.684010" lon="7.509838">
        <ele>428.659539</ele>
        <time>2022-03-09T07:17:41.228Z</time>
      </trkpt>
      <trkpt lat="49.683979" lon="7.509998">
        <ele>428.817015</ele>
        <time>2022-03-09T07:17:48.233Z</time>
      </trkpt>
      <trkpt lat="49.683930" lon="7.510118">
        <ele>428.950806</ele>
        <time>2022-03-09T07:17:53.224Z</time>
      </trkpt>
      <trkpt lat="49.683893" lon="7.510260">
        <ele>429.095142</ele>
        <time>2022-03-09T07:18:00.242Z</time>
      </trkpt>
      <trkpt lat="49.683911" lon="7.510404">
        <ele>429.233424</ele>
        <time>2022-03-09T07:18:07.232Z</time>
      </trkpt>
      <trkpt lat="49.683955" lon="7.510542">
        <ele>429.378479</ele>
        <time>2022-03-09T07:18:16.276Z</time>
      </trkpt>
      <trkpt lat="49.683975" lon="7.510688">
        <ele>429.519188</ele>
        <time>2022-03-09T07:18:22.236Z</time>
      </trkpt>
      <trkpt lat="49.683992" lon="7.510847">
        <ele>429.671135</ele>
        <time>2022-03-09T07:18:29.289Z</time>
      </trkpt>
      <trkpt lat="49.683985" lon="7.510999">
        <ele>429.814812</ele>
        <time>2022-03-09T07:18:36.226Z</time>
      </trkpt>
      <trkpt lat="49.683993" lon="7.511138">
        <ele>429.946386</ele>
        <time>2022-03-09T07:18:42.288Z</time>
      </trkpt>
      <trkpt lat="49.683998" lon="7.511281">
        <ele>430.081412</ele>
        <time>2022-03-09T07:18:48.236Z</time>
      </trkpt>
      <trkpt lat="49.683986" lon="7.511443">
        <ele>430.235152</ele>
        <time>2022-03-09T07:18:54.216Z</time>
      </trkpt>
      <trkpt lat="49.683961" lon="7.511604">
        <ele>430.391262</ele>
        <time>2022-03-09T07:19:00.245Z</time>
      </trkpt>
      <trkpt lat="49.683938" lon="7.511749">
        <ele>430.532025</ele>
        <time>2022-03-09T07:19:06.247Z</time>
      </trkpt>
      <trkpt lat="49.683896" lon="7.511878">
        <ele>430.668186</ele>
        <time>2022-03-09T07:19:12.246Z</time>
      </trkpt>
      <trkpt lat="49.683843" lon="7.511992">
        <ele>430.730410</ele>
        <time>2022-03-09T07:19:17.237Z</time>
      </trkpt>
      <trkpt lat="49.683790" lon="7.512106">
        <ele>430.765265</ele>
        <time>2022-03-09T07:19:22.234Z</time>
      </trkpt>
      <trkpt lat="49.683723" lon="7.512213">
        <ele>430.802237</ele>
        <time>2022-03-09T07:19:28.249Z</time>
      </trkpt>
      <trkpt lat="49.683630" lon="7.512308">
        <ele>430.845016</ele>
        <time>2022-03-09T07:19:34.247Z</time>
      </trkpt>
      <trkpt lat="49.683532" lon="7.512317">
        <ele>430.882691</ele>
        <time>2022-03-09T07:19:40.244Z</time>
      </trkpt>
      <trkpt lat="49.683426" lon="7.512317">
        <ele>430.923369</ele>
        <time>2022-03-09T07:19:47.226Z</time>
      </trkpt>
      <trkpt lat="49.683327" lon="7.512373">
        <ele>430.963826</ele>
        <time>2022-03-09T07:19:54.247Z</time>
      </trkpt>
      <trkpt lat="49.683237" lon="7.512412">
        <ele>430.999696</ele>
        <time>2022-03-09T07:20:00.231Z</time>
      </trkpt>
      <trkpt lat="49.683143" lon="7.512454">
        <ele>431.037246</ele>
        <time>2022-03-09T07:20:07.228Z</time>
      </trkpt>
      <trkpt lat="49.683048" lon="7.512474">
        <ele>431.074039</ele>
        <time>2022-03-09T07:20:13.252Z</time>
      </trkpt>
      <trkpt lat="49.682958" lon="7.512497">
        <ele>431.109046</ele>
        <time>2022-03-09T07:20:21.241Z</time>
      </trkpt>
      <trkpt lat="49.682863" lon="7.512528">
        <ele>431.146307</ele>
        <time>2022-03-09T07:20:27.263Z</time>
      </trkpt>
      <trkpt lat="49.682770" lon="7.512541">
        <ele>431.182142</ele>
        <time>2022-03-09T07:20:32.227Z</time>
      </trkpt>
      <trkpt lat="49.682670" lon="7.512548">
        <ele>431.220557</ele>
        <time>2022-03-09T07:20:39.246Z</time>
      </trkpt>
      <trkpt lat="49.682574" lon="7.512527">
        <ele>431.257765</ele>
        <time>2022-03-09T07:20:45.236Z</time>
      </trkpt>
      <trkpt lat="49.682484" lon="7.512528">
        <ele>431.292304</ele>
        <time>2022-03-09T07:20:51.237Z</time>
      </trkpt>
      <trkpt lat="49.682387" lon="7.512503">
        <ele>431.330042</ele>
        <time>2022-03-09T07:20:57.248Z</time>
      </trkpt>
      <trkpt lat="49.682296" lon="7.512455">
        <ele>431.366942</ele>
        <time>2022-03-09T07:21:04.234Z</time>
      </trkpt>
      <trkpt lat="49.682213" lon="7.512379">
        <ele>431.375967</ele>
        <time>2022-03-09T07:21:11.255Z</time>
      </trkpt>
      <trkpt lat="49.682149" lon="7.512262">
        <ele>431.286976</ele>
        <time>2022-03-09T07:21:17.257Z</time>
      </trkpt>
      <trkpt lat="49.682097" lon="7.512136">
        <ele>431.200168</ele>
        <time>2022-03-09T07:21:23.247Z</time>
      </trkpt>
      <trkpt lat="49.682043" lon="7.512008">
        <ele>431.111411</ele>
        <time>2022-03-09T07:21:28.227Z</time>
      </trkpt>
      <trkpt lat="49.681986" lon="7.511896">
        <ele>431.028643</ele>
        <time>2022-03-09T07:21:34.233Z</time>
      </trkpt>
      <trkpt lat="49.681919" lon="7.511783">
        <ele>430.939616</ele>
        <time>2022-03-09T07:21:41.229Z</time>
      </trkpt>
      <trkpt lat="49.681861" lon="7.511666">
        <ele>430.854002</ele>
        <time>2022-03-09T07:21:47.238Z</time>
      </trkpt>
      <trkpt lat="49.681781" lon="7.511565">
        <ele>430.761269</ele>
        <time>2022-03-09T07:21:55.300Z</time>
      </trkpt>
      <trkpt lat="49.681705" lon="7.511476">
        <ele>430.675668</ele>
        <time>2022-03-09T07:22:01.232Z</time>
      </trkpt>
      <trkpt lat="49.681620" lon="7.511388">
        <ele>430.583824</ele>
        <time>2022-03-09T07:22:07.244Z</time>
      </trkpt>
      <trkpt lat="49.681540" lon="7.511322">
        <ele>430.502414</ele>
        <time>2022-03-09T07:22:13.232Z</time>
      </trkpt>
      <trkpt lat="49.681431" lon="7.511115">
        <ele>430.347391</ele>
        <time>2022-03-09T07:22:49.227Z</time>
      </trkpt>
      <trkpt lat="49.681431" lon="7.510965">
        <ele>430.260262</ele>
        <time>2022-03-09T07:23:00.239Z</time>
      </trkpt>
      <trkpt lat="49.681451" lon="7.510826">
        <ele>430.177551</ele>
        <time>2022-03-09T07:23:08.243Z</time>
      </trkpt>
      <trkpt lat="49.681473" lon="7.510684">
        <ele>430.092737</ele>
        <time>2022-03-09T07:23:17.233Z</time>
      </trkpt>
      <trkpt lat="49.681513" lon="7.510551">
        <ele>430.007545</ele>
        <time>2022-03-09T07:23:23.220Z</time>
      </trkpt>
      <trkpt lat="49.681565" lon="7.510422">
        <ele>429.919263</ele>
        <time>2022-03-09T07:23:32.207Z</time>
      </trkpt>
      <trkpt lat="49.681646" lon="7.510333">
        <ele>429.830043</ele>
        <time>2022-03-09T07:23:40.232Z</time>
      </trkpt>
      <trkpt lat="49.681725" lon="7.510258">
        <ele>429.963609</ele>
        <time>2022-03-09T07:23:47.314Z</time>
      </trkpt>
      <trkpt lat="49.681807" lon="7.510186">
        <ele>430.417440</ele>
        <time>2022-03-09T07:23:55.237Z</time>
      </trkpt>
      <trkpt lat="49.681864" lon="7.510076">
        <ele>430.856235</ele>
        <time>2022-03-09T07:24:02.237Z</time>
      </trkpt>
      <trkpt lat="49.681945" lon="7.509996">
        <ele>431.318811</ele>
        <time>2022-03-09T07:24:10.220Z</time>
      </trkpt>
      <trkpt lat="49.682016" lon="7.509891">
        <ele>431.791690</ele>
        <time>2022-03-09T07:24:18.207Z</time>
      </trkpt>
      <trkpt lat="49.681997" lon="7.509751">
        <ele>432.237080</ele>
        <time>2022-03-09T07:24:25.191Z</time>
      </trkpt>
      <trkpt lat="49.681977" lon="7.509599">
        <ele>432.720034</ele>
        <time>2022-03-09T07:24:32.237Z</time>
      </trkpt>
      <trkpt lat="49.681954" lon="7.509454">
        <ele>433.184875</ele>
        <time>2022-03-09T07:24:39.246Z</time>
      </trkpt>
      <trkpt lat="49.681928" lon="7.509303">
        <ele>433.671392</ele>
        <time>2022-03-09T07:24:46.279Z</time>
      </trkpt>
      <trkpt lat="49.681899" lon="7.509164">
        <ele>434.126126</ele>
        <time>2022-03-09T07:24:52.232Z</time>
      </trkpt>
      <trkpt lat="49.681876" lon="7.509029">
        <ele>434.560790</ele>
        <time>2022-03-09T07:24:59.231Z</time>
      </trkpt>
      <trkpt lat="49.681864" lon="7.508880">
        <ele>435.028298</ele>
        <time>2022-03-09T07:25:06.238Z</time>
      </trkpt>
      <trkpt lat="49.681840" lon="7.508744">
        <ele>435.467215</ele>
        <time>2022-03-09T07:25:12.256Z</time>
      </trkpt>
      <trkpt lat="49.681811" lon="7.508589">
        <ele>435.969597</ele>
        <time>2022-03-09T07:25:19.216Z</time>
      </trkpt>
      <trkpt lat="49.681779" lon="7.508444">
        <ele>436.446609</ele>
        <time>2022-03-09T07:25:26.266Z</time>
      </trkpt>
      <trkpt lat="49.681758" lon="7.508307">
        <ele>436.884981</ele>
        <time>2022-03-09T07:25:33.251Z</time>
      </trkpt>
      <trkpt lat="49.681743" lon="7.508158">
        <ele>437.354492</ele>
        <time>2022-03-09T07:25:39.226Z</time>
      </trkpt>
      <trkpt lat="49.681719" lon="7.508022">
        <ele>437.793411</ele>
        <time>2022-03-09T07:25:45.246Z</time>
      </trkpt>
      <trkpt lat="49.681688" lon="7.507888">
        <ele>438.236502</ele>
        <time>2022-03-09T07:25:51.248Z</time>
      </trkpt>
      <trkpt lat="49.681665" lon="7.507740">
        <ele>438.533257</ele>
        <time>2022-03-09T07:25:57.248Z</time>
      </trkpt>
      <trkpt lat="49.681636" lon="7.507589">
        <ele>438.706801</ele>
        <time>2022-03-09T07:26:04.270Z</time>
      </trkpt>
      <trkpt lat="49.681615" lon="7.507448">
        <ele>438.866216</ele>
        <time>2022-03-09T07:26:10.261Z</time>
      </trkpt>
      <trkpt lat="49.681585" lon="7.507295">
        <ele>439.042361</ele>
        <time>2022-03-09T07:26:17.223Z</time>
      </trkpt>
      <trkpt lat="49.681567" lon="7.507144">
        <ele>439.211531</ele>
        <time>2022-03-09T07:26:23.249Z</time>
      </trkpt>
      <trkpt lat="49.681546" lon="7.506988">
        <ele>439.387092</ele>
        <time>2022-03-09T07:26:29.244Z</time>
      </trkpt>
      <trkpt lat="49.681526" lon="7.506852">
        <ele>439.540757</ele>
        <time>2022-03-09T07:26:35.215Z</time>
      </trkpt>
      <trkpt lat="49.681500" lon="7.506713">
        <ele>439.700177</ele>
        <time>2022-03-09T07:26:41.306Z</time>
      </trkpt>
      <trkpt lat="49.681481" lon="7.506571">
        <ele>439.859943</ele>
        <time>2022-03-09T07:26:47.240Z</time>
      </trkpt>
      <trkpt lat="49.681465" lon="7.506427">
        <ele>440.020923</ele>
        <time>2022-03-09T07:26:53.302Z</time>
      </trkpt>
      <trkpt lat="49.681437" lon="7.506292">
        <ele>440.177121</ele>
        <time>2022-03-09T07:27:00.254Z</time>
      </trkpt>
      <trkpt lat="49.681417" lon="7.506135">
        <ele>440.353423</ele>
        <time>2022-03-09T07:27:07.250Z</time>
      </trkpt>
      <trkpt lat="49.681399" lon="7.505996">
        <ele>440.509610</ele>
        <time>2022-03-09T07:27:13.244Z</time>
      </trkpt>
      <trkpt lat="49.681365" lon="7.505864">
        <ele>440.666147</ele>
        <time>2022-03-09T07:27:19.249Z</time>
      </trkpt>
      <trkpt lat="49.681336" lon="7.505710">
        <ele>440.842864</ele>
        <time>2022-03-09T07:27:26.231Z</time>
      </trkpt>
      <trkpt lat="49.681326" lon="7.505567">
        <ele>441.001339</ele>
        <time>2022-03-09T07:27:32.266Z</time>
      </trkpt>
      <trkpt lat="49.681302" lon="7.505429">
        <ele>441.158784</ele>
        <time>2022-03-09T07:27:38.239Z</time>
      </trkpt>
      <trkpt lat="49.681283" lon="7.505287">
        <ele>441.318549</ele>
        <time>2022-03-09T07:27:44.262Z</time>
      </trkpt>
      <trkpt lat="49.681251" lon="7.505140">
        <ele>441.489435</ele>
        <time>2022-03-09T07:27:51.244Z</time>
      </trkpt>
      <trkpt lat="49.681224" lon="7.505002">
        <ele>441.969148</ele>
        <time>2022-03-09T07:27:58.243Z</time>
      </trkpt>
      <trkpt lat="49.681206" lon="7.504848">
        <ele>442.512225</ele>
        <time>2022-03-09T07:28:05.321Z</time>
      </trkpt>
      <trkpt lat="49.681172" lon="7.504702">
        <ele>443.050706</ele>
        <time>2022-03-09T07:28:12.279Z</time>
      </trkpt>
      <trkpt lat="49.681145" lon="7.504549">
        <ele>443.601057</ele>
        <time>2022-03-09T07:28:19.242Z</time>
      </trkpt>
      <trkpt lat="49.681091" lon="7.504435">
        <ele>444.091356</ele>
        <time>2022-03-09T07:28:25.236Z</time>
      </trkpt>
      <trkpt lat="49.681027" lon="7.504306">
        <ele>444.655477</ele>
        <time>2022-03-09T07:28:33.213Z</time>
      </trkpt>
      <trkpt lat="49.680977" lon="7.504168">
        <ele>445.204352</ele>
        <time>2022-03-09T07:28:40.290Z</time>
      </trkpt>
      <trkpt lat="49.680917" lon="7.504062">
        <ele>445.693099</ele>
        <time>2022-03-09T07:28:46.247Z</time>
      </trkpt>
      <trkpt lat="49.680855" lon="7.503960">
        <ele>446.178766</ele>
        <time>2022-03-09T07:28:52.244Z</time>
      </trkpt>
      <trkpt lat="49.680808" lon="7.503825">
        <ele>446.710772</ele>
        <time>2022-03-09T07:28:59.225Z</time>
      </trkpt>
      <trkpt lat="49.680708" lon="7.503603">
        <ele>447.649493</ele>
        <time>2022-03-09T07:29:34.206Z</time>
      </trkpt>
      <trkpt lat="49.680660" lon="7.503479">
        <ele>448.150944</ele>
        <time>2022-03-09T07:29:41.253Z</time>
      </trkpt>
      <trkpt lat="49.680589" lon="7.503362">
        <ele>448.707603</ele>
        <time>2022-03-09T07:29:49.246Z</time>
      </trkpt>
      <trkpt lat="49.680524" lon="7.503265">
        <ele>449.192217</ele>
        <time>2022-03-09T07:29:55.284Z</time>
      </trkpt>
      <trkpt lat="49.680437" lon="7.503218">
        <ele>449.686515</ele>
        <time>2022-03-09T07:30:01.241Z</time>
      </trkpt>
      <trkpt lat="49.680344" lon="7.503167">
        <ele>450.215778</ele>
        <time>2022-03-09T07:30:08.228Z</time>
      </trkpt>
      <trkpt lat="49.680262" lon="7.503092">
        <ele>450.726820</ele>
        <time>2022-03-09T07:30:15.299Z</time>
      </trkpt>
      <trkpt lat="49.680176" lon="7.503018">
        <ele>451.287330</ele>
        <time>2022-03-09T07:30:23.245Z</time>
      </trkpt>
      <trkpt lat="49.680085" lon="7.502968">
        <ele>451.960257</ele>
        <time>2022-03-09T07:30:30.244Z</time>
      </trkpt>
      <trkpt lat="49.680013" lon="7.502883">
        <ele>452.591542</ele>
        <time>2022-03-09T07:30:36.217Z</time>
      </trkpt>
      <trkpt lat="49.679988" lon="7.502735">
        <ele>453.281147</ele>
        <time>2022-03-09T07:30:42.227Z</time>
      </trkpt>
      <trkpt lat="49.679940" lon="7.502594">
        <ele>453.999443</ele>
        <time>2022-03-09T07:30:48.219Z</time>
      </trkpt>
      <trkpt lat="49.679905" lon="7.502440">
        <ele>454.735320</ele>
        <time>2022-03-09T07:30:55.242Z</time>
      </trkpt>
      <trkpt lat="49.679862" lon="7.502317">
        <ele>455.365616</ele>
        <time>2022-03-09T07:31:00.226Z</time>
      </trkpt>
      <trkpt lat="49.679813" lon="7.502183">
        <ele>456.059541</ele>
        <time>2022-03-09T07:31:08.297Z</time>
      </trkpt>
      <trkpt lat="49.679782" lon="7.502030">
        <ele>456.782356</ele>
        <time>2022-03-09T07:31:16.240Z</time>
      </trkpt>
      <trkpt lat="49.679747" lon="7.501897">
        <ele>457.429670</ele>
        <time>2022-03-09T07:31:22.230Z</time>
      </trkpt>
      <trkpt lat="49.679707" lon="7.501760">
        <ele>458.107293</ele>
        <time>2022-03-09T07:31:29.254Z</time>
      </trkpt>
      <trkpt lat="49.679663" lon="7.501624">
        <ele>458.792812</ele>
        <time>2022-03-09T07:31:36.243Z</time>
      </trkpt>
      <trkpt lat="49.679635" lon="7.501482">
        <ele>459.462076</ele>
        <time>2022-03-09T07:31:42.223Z</time>
      </trkpt>
      <trkpt lat="49.679589" lon="7.501353">
        <ele>460.126132</ele>
        <time>2022-03-09T07:31:49.234Z</time>
      </trkpt>
      <trkpt lat="49.679551" lon="7.501206">
        <ele>460.839804</ele>
        <time>2022-03-09T07:31:55.252Z</time>
      </trkpt>
      <trkpt lat="49.679498" lon="7.501088">
        <ele>461.487406</ele>
        <time>2022-03-09T07:32:01.248Z</time>
      </trkpt>
      <trkpt lat="49.679463" lon="7.500956">
        <ele>462.130549</ele>
        <time>2022-03-09T07:32:08.319Z</time>
      </trkpt>
      <trkpt lat="49.679418" lon="7.500820">
        <ele>462.819215</ele>
        <time>2022-03-09T07:32:14.249Z</time>
      </trkpt>
      <trkpt lat="49.679392" lon="7.500670">
        <ele>463.519327</ele>
        <time>2022-03-09T07:32:20.224Z</time>
      </trkpt>
      <trkpt lat="49.679339" lon="7.500557">
        <ele>463.597256</ele>
        <time>2022-03-09T07:32:27.278Z</time>
      </trkpt>
      <trkpt lat="49.679301" lon="7.500421">
        <ele>463.482732</ele>
        <time>2022-03-09T07:32:33.265Z</time>
      </trkpt>
      <trkpt lat="49.679265" lon="7.500290">
        <ele>463.372703</ele>
        <time>2022-03-09T07:32:38.240Z</time>
      </trkpt>
      <trkpt lat="49.679235" lon="7.500156">
        <ele>463.263083</ele>
        <time>2022-03-09T07:32:45.285Z</time>
      </trkpt>
      <trkpt lat="49.679199" lon="7.500013">
        <ele>463.144459</ele>
        <time>2022-03-09T07:32:53.242Z</time>
      </trkpt>
      <trkpt lat="49.679154" lon="7.499861">
        <ele>463.015233</ele>
        <time>2022-03-09T07:32:59.257Z</time>
      </trkpt>
      <trkpt lat="49.679115" lon="7.499712">
        <ele>462.890975</ele>
        <time>2022-03-09T07:33:05.248Z</time>
      </trkpt>
      <trkpt lat="49.679073" lon="7.499577">
        <ele>462.775171</ele>
        <time>2022-03-09T07:33:12.255Z</time>
      </trkpt>
      <trkpt lat="49.679026" lon="7.499449">
        <ele>462.661393</ele>
        <time>2022-03-09T07:33:18.242Z</time>
      </trkpt>
      <trkpt lat="49.678984" lon="7.499301">
        <ele>462.536455</ele>
        <time>2022-03-09T07:33:24.246Z</time>
      </trkpt>
      <trkpt lat="49.678951" lon="7.499170">
        <ele>462.427775</ele>
        <time>2022-03-09T07:33:30.246Z</time>
      </trkpt>
      <trkpt lat="49.678886" lon="7.499070">
        <ele>462.318195</ele>
        <time>2022-03-09T07:33:36.244Z</time>
      </trkpt>
      <trkpt lat="49.678846" lon="7.498922">
        <ele>462.194197</ele>
        <time>2022-03-09T07:33:43.255Z</time>
      </trkpt>
      <trkpt lat="49.678817" lon="7.498788">
        <ele>462.084962</ele>
        <time>2022-03-09T07:33:50.241Z</time>
      </trkpt>
      <trkpt lat="49.678785" lon="7.498648">
        <ele>461.970174</ele>
        <time>2022-03-09T07:33:57.239Z</time>
      </trkpt>
      <trkpt lat="49.678745" lon="7.498516">
        <ele>461.857489</ele>
        <time>2022-03-09T07:34:02.245Z</time>
      </trkpt>
      <trkpt lat="49.678727" lon="7.498373">
        <ele>461.744863</ele>
        <time>2022-03-09T07:34:08.242Z</time>
      </trkpt>
      <trkpt lat="49.678692" lon="7.498215">
        <ele>461.615754</ele>
        <time>2022-03-09T07:34:14.194Z</time>
      </trkpt>
      <trkpt lat="49.678599" lon="7.498167">
        <ele>461.346825</ele>
        <time>2022-03-09T07:34:20.225Z</time>
      </trkpt>
      <trkpt lat="49.678499" lon="7.498182">
        <ele>460.627267</ele>
        <time>2022-03-09T07:34:26.238Z</time>
      </trkpt>
      <trkpt lat="49.678411" lon="7.498146">
        <ele>459.975309</ele>
        <time>2022-03-09T07:34:32.217Z</time>
      </trkpt>
      <trkpt lat="49.678370" lon="7.498018">
        <ele>459.313417</ele>
        <time>2022-03-09T07:34:38.212Z</time>
      </trkpt>
      <trkpt lat="49.678346" lon="7.497867">
        <ele>458.592834</ele>
        <time>2022-03-09T07:34:44.210Z</time>
      </trkpt>
      <trkpt lat="49.678317" lon="7.497717">
        <ele>457.867321</ele>
        <time>2022-03-09T07:34:50.226Z</time>
      </trkpt>
      <trkpt lat="49.678281" lon="7.497580">
        <ele>457.182063</ele>
        <time>2022-03-09T07:34:55.259Z</time>
      </trkpt>
      <trkpt lat="49.678229" lon="7.497443">
        <ele>456.445993</ele>
        <time>2022-03-09T07:35:01.253Z</time>
      </trkpt>
      <trkpt lat="49.678154" lon="7.497349">
        <ele>455.754404</ele>
        <time>2022-03-09T07:35:08.249Z</time>
      </trkpt>
      <trkpt lat="49.678086" lon="7.497257">
        <ele>455.107131</ele>
        <time>2022-03-09T07:35:15.257Z</time>
      </trkpt>
      <trkpt lat="49.678016" lon="7.497156">
        <ele>454.421256</ele>
        <time>2022-03-09T07:35:21.263Z</time>
      </trkpt>
      <trkpt lat="49.677937" lon="7.497060">
        <ele>453.701495</ele>
        <time>2022-03-09T07:35:28.234Z</time>
      </trkpt>
      <trkpt lat="49.677870" lon="7.496946">
        <ele>452.987790</ele>
        <time>2022-03-09T07:35:35.254Z</time>
      </trkpt>
      <trkpt lat="49.677793" lon="7.496849">
        <ele>452.276314</ele>
        <time>2022-03-09T07:35:42.254Z</time>
      </trkpt>
      <trkpt lat="49.677689" lon="7.496764">
        <ele>451.433722</ele>
        <time>2022-03-09T07:35:49.254Z</time>
      </trkpt>
      <trkpt lat="49.677590" lon="7.496712">
        <ele>450.684857</ele>
        <time>2022-03-09T07:35:53.265Z</time>
      </trkpt>
      <trkpt lat="49.677495" lon="7.496716">
        <ele>450.004222</ele>
        <time>2022-03-09T07:35:58.223Z</time>
      </trkpt>
      <trkpt lat="49.677396" lon="7.496701">
        <ele>449.291791</ele>
        <time>2022-03-09T07:36:05.260Z</time>
      </trkpt>
      <trkpt lat="49.677312" lon="7.496653">
        <ele>448.650379</ele>
        <time>2022-03-09T07:36:11.262Z</time>
      </trkpt>
      <trkpt lat="49.677247" lon="7.496528">
        <ele>448.425997</ele>
        <time>2022-03-09T07:36:18.236Z</time>
      </trkpt>
      <trkpt lat="49.677194" lon="7.496392">
        <ele>448.206024</ele>
        <time>2022-03-09T07:36:25.257Z</time>
      </trkpt>
      <trkpt lat="49.677163" lon="7.496258">
        <ele>448.008846</ele>
        <time>2022-03-09T07:36:31.254Z</time>
      </trkpt>
      <trkpt lat="49.677103" lon="7.496120">
        <ele>447.778483</ele>
        <time>2022-03-09T07:36:35.261Z</time>
      </trkpt>
      <trkpt lat="49.677099" lon="7.495964">
        <ele>447.562162</ele>
        <time>2022-03-09T07:36:40.243Z</time>
      </trkpt>
      <trkpt lat="49.677092" lon="7.495821">
        <ele>447.363457</ele>
        <time>2022-03-09T07:36:45.262Z</time>
      </trkpt>
      <trkpt lat="49.677059" lon="7.495690">
        <ele>447.168676</ele>
        <time>2022-03-09T07:36:50.242Z</time>
      </trkpt>
      <trkpt lat="49.677024" lon="7.495555">
        <ele>446.967167</ele>
        <time>2022-03-09T07:36:56.238Z</time>
      </trkpt>
      <trkpt lat="49.676962" lon="7.495451">
        <ele>446.771234</ele>
        <time>2022-03-09T07:37:02.230Z</time>
      </trkpt>
      <trkpt lat="49.676878" lon="7.495374">
        <ele>446.562107</ele>
        <time>2022-03-09T07:37:09.257Z</time>
      </trkpt>
      <trkpt lat="49.676794" lon="7.495281">
        <ele>446.340846</ele>
        <time>2022-03-09T07:37:15.256Z</time>
      </trkpt>
      <trkpt lat="49.676737" lon="7.495138">
        <ele>446.108132</ele>
        <time>2022-03-09T07:37:21.257Z</time>
      </trkpt>
      <trkpt lat="49.676715" lon="7.494996">
        <ele>445.905816</ele>
        <time>2022-03-09T07:37:26.243Z</time>
      </trkpt>
      <trkpt lat="49.676702" lon="7.494854">
        <ele>445.707102</ele>
        <time>2022-03-09T07:37:31.255Z</time>
      </trkpt>
      <trkpt lat="49.676703" lon="7.494708">
        <ele>445.504793</ele>
        <time>2022-03-09T07:37:36.237Z</time>
      </trkpt>
      <trkpt lat="49.676727" lon="7.494556">
        <ele>445.288003</ele>
        <time>2022-03-09T07:37:42.241Z</time>
      </trkpt>
      <trkpt lat="49.676744" lon="7.494401">
        <ele>445.070173</ele>
        <time>2022-03-09T07:37:47.329Z</time>
      </trkpt>
      <trkpt lat="49.676769" lon="7.494256">
        <ele>444.862252</ele>
        <time>2022-03-09T07:37:54.231Z</time>
      </trkpt>
      <trkpt lat="49.676791" lon="7.494112">
        <ele>444.893115</ele>
        <time>2022-03-09T07:38:01.236Z</time>
      </trkpt>
      <trkpt lat="49.676843" lon="7.493976">
        <ele>445.046518</ele>
        <time>2022-03-09T07:38:09.263Z</time>
      </trkpt>
      <trkpt lat="49.676825" lon="7.493829">
        <ele>445.191804</ele>
        <time>2022-03-09T07:38:13.224Z</time>
      </trkpt>
      <trkpt lat="49.676836" lon="7.493689">
        <ele>445.328757</ele>
        <time>2022-03-09T07:38:18.292Z</time>
      </trkpt>
      <trkpt lat="49.676873" lon="7.493558">
        <ele>445.467562</ele>
        <time>2022-03-09T07:38:23.253Z</time>
      </trkpt>
      <trkpt lat="49.676908" lon="7.493421">
        <ele>445.610596</ele>
        <time>2022-03-09T07:38:29.268Z</time>
      </trkpt>
      <trkpt lat="49.676932" lon="7.493287">
        <ele>445.745617</ele>
        <time>2022-03-09T07:38:35.252Z</time>
      </trkpt>
      <trkpt lat="49.676976" lon="7.493154">
        <ele>445.890674</ele>
        <time>2022-03-09T07:38:41.258Z</time>
      </trkpt>
      <trkpt lat="49.677020" lon="7.493027">
        <ele>446.030568</ele>
        <time>2022-03-09T07:38:47.242Z</time>
      </trkpt>
      <trkpt lat="49.677050" lon="7.492886">
        <ele>446.174705</ele>
        <time>2022-03-09T07:38:54.263Z</time>
      </trkpt>
      <trkpt lat="49.677110" lon="7.492767">
        <ele>446.321204</ele>
        <time>2022-03-09T07:39:00.246Z</time>
      </trkpt>
      <trkpt lat="49.677164" lon="7.492654">
        <ele>446.457618</ele>
        <time>2022-03-09T07:39:05.254Z</time>
      </trkpt>
      <trkpt lat="49.677192" lon="7.492500">
        <ele>446.612959</ele>
        <time>2022-03-09T07:39:11.258Z</time>
      </trkpt>
      <trkpt lat="49.677219" lon="7.492358">
        <ele>446.756685</ele>
        <time>2022-03-09T07:39:17.255Z</time>
      </trkpt>
      <trkpt lat="49.677270" lon="7.492234">
        <ele>446.899365</ele>
        <time>2022-03-09T07:39:24.253Z</time>
      </trkpt>
      <trkpt lat="49.677325" lon="7.492105">
        <ele>447.049384</ele>
        <time>2022-03-09T07:39:30.226Z</time>
      </trkpt>
      <trkpt lat="49.677370" lon="7.491963">
        <ele>447.202928</ele>
        <time>2022-03-09T07:39:36.241Z</time>
      </trkpt>
      <trkpt lat="49.677386" lon="7.491823">
        <ele>447.340985</ele>
        <time>2022-03-09T07:39:42.229Z</time>
      </trkpt>
      <trkpt lat="49.677424" lon="7.491690">
        <ele>447.482171</ele>
        <time>2022-03-09T07:39:49.233Z</time>
      </trkpt>
      <trkpt lat="49.677489" lon="7.491589">
        <ele>447.178490</ele>
        <time>2022-03-09T07:39:55.253Z</time>
      </trkpt>
      <trkpt lat="49.677568" lon="7.491493">
        <ele>446.797446</ele>
        <time>2022-03-09T07:40:00.247Z</time>
      </trkpt>
      <trkpt lat="49.677667" lon="7.491452">
        <ele>446.408839</ele>
        <time>2022-03-09T07:40:07.218Z</time>
      </trkpt>
      <trkpt lat="49.677769" lon="7.491435">
        <ele>446.019860</ele>
        <time>2022-03-09T07:40:13.211Z</time>
      </trkpt>
      <trkpt lat="49.677865" lon="7.491447">
        <ele>445.654684</ele>
        <time>2022-03-09T07:40:19.241Z</time>
      </trkpt>
      <trkpt lat="49.677966" lon="7.491440">
        <ele>445.271354</ele>
        <time>2022-03-09T07:40:26.244Z</time>
      </trkpt>
      <trkpt lat="49.678058" lon="7.491412">
        <ele>444.915833</ele>
        <time>2022-03-09T07:40:31.269Z</time>
      </trkpt>
      <trkpt lat="49.678157" lon="7.491388">
        <ele>444.535881</ele>
        <time>2022-03-09T07:40:36.258Z</time>
      </trkpt>
      <trkpt lat="49.678251" lon="7.491364">
        <ele>444.174645</ele>
        <time>2022-03-09T07:40:42.258Z</time>
      </trkpt>
      <trkpt lat="49.678326" lon="7.491277">
        <ele>443.819084</ele>
        <time>2022-03-09T07:40:48.247Z</time>
      </trkpt>
      <trkpt lat="49.678373" lon="7.491152">
        <ele>443.464391</ele>
        <time>2022-03-09T07:40:54.236Z</time>
      </trkpt>
      <trkpt lat="49.678420" lon="7.491014">
        <ele>443.081786</ele>
        <time>2022-03-09T07:41:01.262Z</time>
      </trkpt>
      <trkpt lat="49.678488" lon="7.490894">
        <ele>442.690442</ele>
        <time>2022-03-09T07:41:07.254Z</time>
      </trkpt>
      <trkpt lat="49.678545" lon="7.490771">
        <ele>442.319266</ele>
        <time>2022-03-09T07:41:13.258Z</time>
      </trkpt>
      <trkpt lat="49.678640" lon="7.490716">
        <ele>441.934625</ele>
        <time>2022-03-09T07:41:19.248Z</time>
      </trkpt>
      <trkpt lat="49.678730" lon="7.490691">
        <ele>441.587918</ele>
        <time>2022-03-09T07:41:26.289Z</time>
      </trkpt>
      <trkpt lat="49.678820" lon="7.490641">
        <ele>441.225301</ele>
        <time>2022-03-09T07:41:31.260Z</time>
      </trkpt>
      <trkpt lat="49.678896" lon="7.490558">
        <ele>440.872455</ele>
        <time>2022-03-09T07:41:37.260Z</time>
      </trkpt>
      <trkpt lat="49.678976" lon="7.490492">
        <ele>440.566901</ele>
        <time>2022-03-09T07:41:42.238Z</time>
      </trkpt>
      <trkpt lat="49.679061" lon="7.490418">
        <ele>440.293385</ele>
        <time>2022-03-09T07:41:48.253Z</time>
      </trkpt>
      <trkpt lat="49.679140" lon="7.490316">
        <ele>440.004777</ele>
        <time>2022-03-09T07:41:55.280Z</time>
      </trkpt>
      <trkpt lat="49.679214" lon="7.490228">
        <ele>439.742999</ele>
        <time>2022-03-09T07:42:03.254Z</time>
      </trkpt>
      <trkpt lat="49.679298" lon="7.490161">
        <ele>439.477982</ele>
        <time>2022-03-09T07:42:09.275Z</time>
      </trkpt>
      <trkpt lat="49.679358" lon="7.490052">
        <ele>439.218374</ele>
        <time>2022-03-09T07:42:15.254Z</time>
      </trkpt>
      <trkpt lat="49.679446" lon="7.489980">
        <ele>438.939216</ele>
        <time>2022-03-09T07:42:21.281Z</time>
      </trkpt>
      <trkpt lat="49.679540" lon="7.489923">
        <ele>438.656118</ele>
        <time>2022-03-09T07:42:26.252Z</time>
      </trkpt>
      <trkpt lat="49.679632" lon="7.489901">
        <ele>438.395118</ele>
        <time>2022-03-09T07:42:31.252Z</time>
      </trkpt>
      <trkpt lat="49.679732" lon="7.489863">
        <ele>438.106409</ele>
        <time>2022-03-09T07:42:37.231Z</time>
      </trkpt>
      <trkpt lat="49.679822" lon="7.489829">
        <ele>437.846656</ele>
        <time>2022-03-09T07:42:43.246Z</time>
      </trkpt>
      <trkpt lat="49.679914" lon="7.489814">
        <ele>437.587295</ele>
        <time>2022-03-09T07:42:49.245Z</time>
      </trkpt>
      <trkpt lat="49.680004" lon="7.489782">
        <ele>437.328380</ele>
        <time>2022-03-09T07:42:56.222Z</time>
      </trkpt>
      <trkpt lat="49.680095" lon="7.489818">
        <ele>437.065027</ele>
        <time>2022-03-09T07:43:02.244Z</time>
      </trkpt>
      <trkpt lat="49.680192" lon="7.489834">
        <ele>436.791534</ele>
        <time>2022-03-09T07:43:07.249Z</time>
      </trkpt>
      <trkpt lat="49.680287" lon="7.489833">
        <ele>436.525187</ele>
        <time>2022-03-09T07:43:12.291Z</time>
      </trkpt>
      <trkpt lat="49.680385" lon="7.489809">
        <ele>436.247007</ele>
        <time>2022-03-09T07:43:19.249Z</time>
      </trkpt>
      <trkpt lat="49.680491" lon="7.489804">
        <ele>435.949688</ele>
        <time>2022-03-09T07:43:26.249Z</time>
      </trkpt>
      <trkpt lat="49.680584" lon="7.489783">
        <ele>435.686186</ele>
        <time>2022-03-09T07:43:32.248Z</time>
      </trkpt>
      <trkpt lat="49.680680" lon="7.489780">
        <ele>435.428763</ele>
        <time>2022-03-09T07:43:39.248Z</time>
      </trkpt>
      <trkpt lat="49.680771" lon="7.489784">
        <ele>435.187456</ele>
        <time>2022-03-09T07:43:45.260Z</time>
      </trkpt>
      <trkpt lat="49.680865" lon="7.489811">
        <ele>434.934027</ele>
        <time>2022-03-09T07:43:51.233Z</time>
      </trkpt>
      <trkpt lat="49.680956" lon="7.489869">
        <ele>434.673110</ele>
        <time>2022-03-09T07:43:57.249Z</time>
      </trkpt>
      <trkpt lat="49.681038" lon="7.489962">
        <ele>434.403510</ele>
        <time>2022-03-09T07:44:04.269Z</time>
      </trkpt>
      <trkpt lat="49.681120" lon="7.490047">
        <ele>434.141794</ele>
        <time>2022-03-09T07:44:10.225Z</time>
      </trkpt>
      <trkpt lat="49.681212" lon="7.490053">
        <ele>433.897717</ele>
        <time>2022-03-09T07:44:19.236Z</time>
      </trkpt>
      <trkpt lat="49.681292" lon="7.489985">
        <ele>433.655709</ele>
        <time>2022-03-09T07:44:28.235Z</time>
      </trkpt>
      <trkpt lat="49.681377" lon="7.489926">
        <ele>433.408722</ele>
        <time>2022-03-09T07:44:35.315Z</time>
      </trkpt>
      <trkpt lat="49.681470" lon="7.489883">
        <ele>433.151416</ele>
        <time>2022-03-09T07:44:42.224Z</time>
      </trkpt>
      <trkpt lat="49.681557" lon="7.489840">
        <ele>432.909303</ele>
        <time>2022-03-09T07:44:48.221Z</time>
      </trkpt>
      <trkpt lat="49.681654" lon="7.489816">
        <ele>432.648915</ele>
        <time>2022-03-09T07:44:56.245Z</time>
      </trkpt>
      <trkpt lat="49.681746" lon="7.489781">
        <ele>432.397776</ele>
        <time>2022-03-09T07:45:04.221Z</time>
      </trkpt>
      <trkpt lat="49.681846" lon="7.489741">
        <ele>432.123976</ele>
        <time>2022-03-09T07:45:12.231Z</time>
      </trkpt>
      <trkpt lat="49.681934" lon="7.489710">
        <ele>431.884735</ele>
        <time>2022-03-09T07:45:18.235Z</time>
      </trkpt>
      <trkpt lat="49.682020" lon="7.489663">
        <ele>431.642947</ele>
        <time>2022-03-09T07:45:26.236Z</time>
      </trkpt>
      <trkpt lat="49.682111" lon="7.489610">
        <ele>431.385178</ele>
        <time>2022-03-09T07:45:33.242Z</time>
      </trkpt>
      <trkpt lat="49.682202" lon="7.489578">
        <ele>431.137803</ele>
        <time>2022-03-09T07:45:40.214Z</time>
      </trkpt>
      <trkpt lat="49.682293" lon="7.489531">
        <ele>430.883481</ele>
        <time>2022-03-09T07:45:47.245Z</time>
      </trkpt>
      <trkpt lat="49.682387" lon="7.489508">
        <ele>430.978017</ele>
        <time>2022-03-09T07:45:55.265Z</time>
      </trkpt>
      <trkpt lat="49.682484" lon="7.489473">
        <ele>431.105165</ele>
        <time>2022-03-09T07:46:03.298Z</time>
      </trkpt>
      <trkpt lat="49.682511" lon="7.489340">
        <ele>431.220291</ele>
        <time>2022-03-09T07:46:12.211Z</time>
      </trkpt>
      <trkpt lat="49.682436" lon="7.489225">
        <ele>431.355148</ele>
        <time>2022-03-09T07:46:18.213Z</time>
      </trkpt>
      <trkpt lat="49.682393" lon="7.489089">
        <ele>431.480165</ele>
        <time>2022-03-09T07:46:24.241Z</time>
      </trkpt>
      <trkpt lat="49.682359" lon="7.488955">
        <ele>431.599043</ele>
        <time>2022-03-09T07:46:31.234Z</time>
      </trkpt>
      <trkpt lat="49.682314" lon="7.488827">
        <ele>431.719357</ele>
        <time>2022-03-09T07:46:36.249Z</time>
      </trkpt>
      <trkpt lat="49.682272" lon="7.488704">
        <ele>431.834223</ele>
        <time>2022-03-09T07:46:42.253Z</time>
      </trkpt>
      <trkpt lat="49.682224" lon="7.488583">
        <ele>431.951446</ele>
        <time>2022-03-09T07:46:48.232Z</time>
      </trkpt>
      <trkpt lat="49.682175" lon="7.488448">
        <ele>432.079290</ele>
        <time>2022-03-09T07:46:55.250Z</time>
      </trkpt>
      <trkpt lat="49.682129" lon="7.488315">
        <ele>432.203845</ele>
        <time>2022-03-09T07:47:01.248Z</time>
      </trkpt>
      <trkpt lat="49.682086" lon="7.488181">
        <ele>432.327382</ele>
        <time>2022-03-09T07:47:07.340Z</time>
      </trkpt>
      <trkpt lat="49.682041" lon="7.488058">
        <ele>432.444085</ele>
        <time>2022-03-09T07:47:13.260Z</time>
      </trkpt>
      <trkpt lat="49.681998" lon="7.487923">
        <ele>432.568361</ele>
        <time>2022-03-09T07:47:20.243Z</time>
      </trkpt>
      <trkpt lat="49.681960" lon="7.487780">
        <ele>432.696040</ele>
        <time>2022-03-09T07:47:27.230Z</time>
      </trkpt>
      <trkpt lat="49.681924" lon="7.487644">
        <ele>432.817402</ele>
        <time>2022-03-09T07:47:33.225Z</time>
      </trkpt>
      <trkpt lat="49.681873" lon="7.487502">
        <ele>432.951539</ele>
        <time>2022-03-09T07:47:39.251Z</time>
      </trkpt>
      <trkpt lat="49.681827" lon="7.487375">
        <ele>433.071747</ele>
        <time>2022-03-09T07:47:45.236Z</time>
      </trkpt>
      <trkpt lat="49.681781" lon="7.487243">
        <ele>433.209845</ele>
        <time>2022-03-09T07:47:51.240Z</time>
      </trkpt>
      <trkpt lat="49.681739" lon="7.487120">
        <ele>433.372416</ele>
        <time>2022-03-09T07:47:57.243Z</time>
      </trkpt>
      <trkpt lat="49.681701" lon="7.486971">
        <ele>433.559627</ele>
        <time>2022-03-09T07:48:04.236Z</time>
      </trkpt>
      <trkpt lat="49.681639" lon="7.486841">
        <ele>433.748407</ele>
        <time>2022-03-09T07:48:10.231Z</time>
      </trkpt>
      <trkpt lat="49.681588" lon="7.486720">
        <ele>433.917211</ele>
        <time>2022-03-09T07:48:16.244Z</time>
      </trkpt>
      <trkpt lat="49.681550" lon="7.486585">
        <ele>434.089302</ele>
        <time>2022-03-09T07:48:22.238Z</time>
      </trkpt>
      <trkpt lat="49.681514" lon="7.486454">
        <ele>434.255671</ele>
        <time>2022-03-09T07:48:28.244Z</time>
      </trkpt>
      <trkpt lat="49.681480" lon="7.486308">
        <ele>434.437052</ele>
        <time>2022-03-09T07:48:36.230Z</time>
      </trkpt>
      <trkpt lat="49.681437" lon="7.486181">
        <ele>434.604604</ele>
        <time>2022-03-09T07:48:42.232Z</time>
      </trkpt>
      <trkpt lat="49.681387" lon="7.486051">
        <ele>434.781385</ele>
        <time>2022-03-09T07:48:48.232Z</time>
      </trkpt>
      <trkpt lat="49.681334" lon="7.485920">
        <ele>434.961987</ele>
        <time>2022-03-09T07:48:54.230Z</time>
      </trkpt>
      <trkpt lat="49.681283" lon="7.485771">
        <ele>435.159027</ele>
        <time>2022-03-09T07:49:00.242Z</time>
      </trkpt>
      <trkpt lat="49.681238" lon="7.485635">
        <ele>435.337583</ele>
        <time>2022-03-09T07:49:06.256Z</time>
      </trkpt>
      <trkpt lat="49.681196" lon="7.485512">
        <ele>435.500156</ele>
        <time>2022-03-09T07:49:12.253Z</time>
      </trkpt>
      <trkpt lat="49.681153" lon="7.485382">
        <ele>435.670823</ele>
        <time>2022-03-09T07:49:18.238Z</time>
      </trkpt>
      <trkpt lat="49.681106" lon="7.485251">
        <ele>435.845920</ele>
        <time>2022-03-09T07:49:24.252Z</time>
      </trkpt>
      <trkpt lat="49.681058" lon="7.485121">
        <ele>436.020883</ele>
        <time>2022-03-09T07:49:31.243Z</time>
      </trkpt>
      <trkpt lat="49.681010" lon="7.485000">
        <ele>436.186792</ele>
        <time>2022-03-09T07:49:37.228Z</time>
      </trkpt>
      <trkpt lat="49.680955" lon="7.484874">
        <ele>436.364461</ele>
        <time>2022-03-09T07:49:43.236Z</time>
      </trkpt>
      <trkpt lat="49.680933" lon="7.484736">
        <ele>436.692080</ele>
        <time>2022-03-09T07:49:51.242Z</time>
      </trkpt>
      <trkpt lat="49.680972" lon="7.484587">
        <ele>437.132870</ele>
        <time>2022-03-09T07:49:57.267Z</time>
      </trkpt>
      <trkpt lat="49.681025" lon="7.484467">
        <ele>437.531320</ele>
        <time>2022-03-09T07:50:04.227Z</time>
      </trkpt>
      <trkpt lat="49.681036" lon="7.484314">
        <ele>437.953494</ele>
        <time>2022-03-09T07:50:11.270Z</time>
      </trkpt>
      <trkpt lat="49.681025" lon="7.484154">
        <ele>438.394753</ele>
        <time>2022-03-09T07:50:17.243Z</time>
      </trkpt>
      <trkpt lat="49.681016" lon="7.483989">
        <ele>438.848859</ele>
        <time>2022-03-09T07:50:23.221Z</time>
      </trkpt>
      <trkpt lat="49.680983" lon="7.483845">
        <ele>439.267807</ele>
        <time>2022-03-09T07:50:30.233Z</time>
      </trkpt>
      <trkpt lat="49.680990" lon="7.483695">
        <ele>439.680240</ele>
        <time>2022-03-09T07:50:39.239Z</time>
      </trkpt>
      <trkpt lat="49.680976" lon="7.483555">
        <ele>440.068739</ele>
        <time>2022-03-09T07:50:48.240Z</time>
      </trkpt>
      <trkpt lat="49.680957" lon="7.483410">
        <ele>440.474464</ele>
        <time>2022-03-09T07:50:54.241Z</time>
      </trkpt>
      <trkpt lat="49.680937" lon="7.483273">
        <ele>440.859622</ele>
        <time>2022-03-09T07:51:00.247Z</time>
      </trkpt>
      <trkpt lat="49.680913" lon="7.483124">
        <ele>441.280716</ele>
        <time>2022-03-09T07:51:06.229Z</time>
      </trkpt>
      <trkpt lat="49.680921" lon="7.482972">
        <ele>441.698943</ele>
        <time>2022-03-09T07:51:13.283Z</time>
      </trkpt>
      <trkpt lat="49.680974" lon="7.482835">
        <ele>442.136689</ele>
        <time>2022-03-09T07:51:19.229Z</time>
      </trkpt>
      <trkpt lat="49.681071" lon="7.482782">
        <ele>442.572752</ele>
        <time>2022-03-09T07:51:26.323Z</time>
      </trkpt>
      <trkpt lat="49.681152" lon="7.482713">
        <ele>442.964759</ele>
        <time>2022-03-09T07:51:34.247Z</time>
      </trkpt>
      <trkpt lat="49.681219" lon="7.482592">
        <ele>443.401513</ele>
        <time>2022-03-09T07:51:42.221Z</time>
      </trkpt>
      <trkpt lat="49.681293" lon="7.482501">
        <ele>443.802327</ele>
        <time>2022-03-09T07:51:48.228Z</time>
      </trkpt>
      <trkpt lat="49.681355" lon="7.482385">
        <ele>444.167253</ele>
        <time>2022-03-09T07:51:54.239Z</time>
      </trkpt>
      <trkpt lat="49.681447" lon="7.482334">
        <ele>444.472308</ele>
        <time>2022-03-09T07:52:02.237Z</time>
      </trkpt>
      <trkpt lat="49.681499" lon="7.482206">
        <ele>444.777529</ele>
        <time>2022-03-09T07:52:13.270Z</time>
      </trkpt>
      <trkpt lat="49.681554" lon="7.482086">
        <ele>445.074505</ele>
        <time>2022-03-09T07:52:21.261Z</time>
      </trkpt>
      <trkpt lat="49.681623" lon="7.481973">
        <ele>445.388280</ele>
        <time>2022-03-09T07:52:29.260Z</time>
      </trkpt>
      <trkpt lat="49.681695" lon="7.481864">
        <ele>445.702848</ele>
        <time>2022-03-09T07:52:36.247Z</time>
      </trkpt>
      <trkpt lat="49.681764" lon="7.481770">
        <ele>445.989927</ele>
        <time>2022-03-09T07:52:43.246Z</time>
      </trkpt>
      <trkpt lat="49.681828" lon="7.481643">
        <ele>446.315010</ele>
        <time>2022-03-09T07:52:51.259Z</time>
      </trkpt>
      <trkpt lat="49.681907" lon="7.481538">
        <ele>446.640215</ele>
        <time>2022-03-09T07:52:58.230Z</time>
      </trkpt>
      <trkpt lat="49.681978" lon="7.481430">
        <ele>446.951141</ele>
        <time>2022-03-09T07:53:05.254Z</time>
      </trkpt>
      <trkpt lat="49.682030" lon="7.481308">
        <ele>447.246168</ele>
        <time>2022-03-09T07:53:13.288Z</time>
      </trkpt>
      <trkpt lat="49.682077" lon="7.481172">
        <ele>447.557534</ele>
        <time>2022-03-09T07:53:22.248Z</time>
      </trkpt>
      <trkpt lat="49.682126" lon="7.481045">
        <ele>447.856141</ele>
        <time>2022-03-09T07:53:29.254Z</time>
      </trkpt>
      <trkpt lat="49.682188" lon="7.480930">
        <ele>448.158432</ele>
        <time>2022-03-09T07:53:38.247Z</time>
      </trkpt>
      <trkpt lat="49.682297" lon="7.480952">
        <ele>448.501523</ele>
        <time>2022-03-09T07:54:01.219Z</time>
      </trkpt>
      <trkpt lat="49.682386" lon="7.481032">
        <ele>448.822867</ele>
        <time>2022-03-09T07:54:13.207Z</time>
      </trkpt>
      <trkpt lat="49.682478" lon="7.481070">
        <ele>449.120088</ele>
        <time>2022-03-09T07:54:17.226Z</time>
      </trkpt>
      <trkpt lat="49.682566" lon="7.481127">
        <ele>449.417892</ele>
        <time>2022-03-09T07:54:23.268Z</time>
      </trkpt>
      <trkpt lat="49.682662" lon="7.481195">
        <ele>449.454149</ele>
        <time>2022-03-09T07:54:30.248Z</time>
      </trkpt>
      <trkpt lat="49.682751" lon="7.481281">
        <ele>448.817683</ele>
        <time>2022-03-09T07:54:37.270Z</time>
      </trkpt>
      <trkpt lat="49.682814" lon="7.481383">
        <ele>448.264438</ele>
        <time>2022-03-09T07:54:46.247Z</time>
      </trkpt>
      <trkpt lat="49.682881" lon="7.481476">
        <ele>447.718374</ele>
        <time>2022-03-09T07:54:51.253Z</time>
      </trkpt>
      <trkpt lat="49.682959" lon="7.481569">
        <ele>447.121020</ele>
        <time>2022-03-09T07:54:55.259Z</time>
      </trkpt>
      <trkpt lat="49.683035" lon="7.481683">
        <ele>446.478823</ele>
        <time>2022-03-09T07:55:01.254Z</time>
      </trkpt>
      <trkpt lat="49.683094" lon="7.481800">
        <ele>445.896844</ele>
        <time>2022-03-09T07:55:07.268Z</time>
      </trkpt>
      <trkpt lat="49.683162" lon="7.481899">
        <ele>445.330382</ele>
        <time>2022-03-09T07:55:12.258Z</time>
      </trkpt>
      <trkpt lat="49.683229" lon="7.482011">
        <ele>444.731936</ele>
        <time>2022-03-09T07:55:19.275Z</time>
      </trkpt>
      <trkpt lat="49.683306" lon="7.482113">
        <ele>444.117003</ele>
        <time>2022-03-09T07:55:25.259Z</time>
      </trkpt>
      <trkpt lat="49.683348" lon="7.482235">
        <ele>443.574823</ele>
        <time>2022-03-09T07:55:30.247Z</time>
      </trkpt>
      <trkpt lat="49.683422" lon="7.482329">
        <ele>442.994003</ele>
        <time>2022-03-09T07:55:35.258Z</time>
      </trkpt>
      <trkpt lat="49.683514" lon="7.482390">
        <ele>442.386973</ele>
        <time>2022-03-09T07:55:41.357Z</time>
      </trkpt>
      <trkpt lat="49.683609" lon="7.482454">
        <ele>441.758575</ele>
        <time>2022-03-09T07:55:47.254Z</time>
      </trkpt>
      <trkpt lat="49.683692" lon="7.482543">
        <ele>441.146022</ele>
        <time>2022-03-09T07:55:54.247Z</time>
      </trkpt>
      <trkpt lat="49.683750" lon="7.482665">
        <ele>440.552065</ele>
        <time>2022-03-09T07:56:00.258Z</time>
      </trkpt>
      <trkpt lat="49.683815" lon="7.482770">
        <ele>439.981938</ele>
        <time>2022-03-09T07:56:06.246Z</time>
      </trkpt>
      <trkpt lat="49.683886" lon="7.482887">
        <ele>439.352612</ele>
        <time>2022-03-09T07:56:13.272Z</time>
      </trkpt>
      <trkpt lat="49.683955" lon="7.482991">
        <ele>438.768202</ele>
        <time>2022-03-09T07:56:20.253Z</time>
      </trkpt>
      <trkpt lat="49.684019" lon="7.483115">
        <ele>438.363700</ele>
        <time>2022-03-09T07:56:27.267Z</time>
      </trkpt>
      <trkpt lat="49.684087" lon="7.483223">
        <ele>437.988742</ele>
        <time>2022-03-09T07:56:33.260Z</time>
      </trkpt>
      <trkpt lat="49.684164" lon="7.483319">
        <ele>437.608297</ele>
        <time>2022-03-09T07:56:39.270Z</time>
      </trkpt>
      <trkpt lat="49.684249" lon="7.483412">
        <ele>437.207805</ele>
        <time>2022-03-09T07:56:45.264Z</time>
      </trkpt>
      <trkpt lat="49.684325" lon="7.483517">
        <ele>436.815791</ele>
        <time>2022-03-09T07:56:51.335Z</time>
      </trkpt>
      <trkpt lat="49.684403" lon="7.483627">
        <ele>436.409732</ele>
        <time>2022-03-09T07:56:57.262Z</time>
      </trkpt>
      <trkpt lat="49.684481" lon="7.483727">
        <ele>436.020010</ele>
        <time>2022-03-09T07:57:03.266Z</time>
      </trkpt>
      <trkpt lat="49.684558" lon="7.483812">
        <ele>435.656126</ele>
        <time>2022-03-09T07:57:09.267Z</time>
      </trkpt>
      <trkpt lat="49.684636" lon="7.483904">
        <ele>435.278801</ele>
        <time>2022-03-09T07:57:16.265Z</time>
      </trkpt>
      <trkpt lat="49.684716" lon="7.483977">
        <ele>434.921535</ele>
        <time>2022-03-09T07:57:22.248Z</time>
      </trkpt>
      <trkpt lat="49.684797" lon="7.484058">
        <ele>434.550527</ele>
        <time>2022-03-09T07:57:28.258Z</time>
      </trkpt>
      <trkpt lat="49.684881" lon="7.484152">
        <ele>434.151714</ele>
        <time>2022-03-09T07:57:34.260Z</time>
      </trkpt>
      <trkpt lat="49.684957" lon="7.484237">
        <ele>433.790954</ele>
        <time>2022-03-09T07:57:40.338Z</time>
      </trkpt>
      <trkpt lat="49.685030" lon="7.484323">
        <ele>433.437972</ele>
        <time>2022-03-09T07:57:45.266Z</time>
      </trkpt>
      <trkpt lat="49.685103" lon="7.484431">
        <ele>433.049363</ele>
        <time>2022-03-09T07:57:51.281Z</time>
      </trkpt>
      <trkpt lat="49.685175" lon="7.484548">
        <ele>432.647606</ele>
        <time>2022-03-09T07:57:58.260Z</time>
      </trkpt>
      <trkpt lat="49.685244" lon="7.484653">
        <ele>432.275234</ele>
        <time>2022-03-09T07:58:04.252Z</time>
      </trkpt>
      <trkpt lat="49.685324" lon="7.484759">
        <ele>431.870011</ele>
        <time>2022-03-09T07:58:10.324Z</time>
      </trkpt>
      <trkpt lat="49.685395" lon="7.484864">
        <ele>431.659269</ele>
        <time>2022-03-09T07:58:16.273Z</time>
      </trkpt>
      <trkpt lat="49.685463" lon="7.484956">
        <ele>431.486559</ele>
        <time>2022-03-09T07:58:21.270Z</time>
      </trkpt>
      <trkpt lat="49.685578" lon="7.485110">
        <ele>431.195766</ele>
        <time>2022-03-09T07:58:44.259Z</time>
      </trkpt>
      <trkpt lat="49.685646" lon="7.485232">
        <ele>430.996659</ele>
        <time>2022-03-09T07:58:51.262Z</time>
      </trkpt>
      <trkpt lat="49.685708" lon="7.485336">
        <ele>430.821800</ele>
        <time>2022-03-09T07:58:56.222Z</time>
      </trkpt>
      <trkpt lat="49.685802" lon="7.485425">
        <ele>430.611129</ele>
        <time>2022-03-09T07:59:04.254Z</time>
      </trkpt>
      <trkpt lat="49.685875" lon="7.485543">
        <ele>430.409261</ele>
        <time>2022-03-09T07:59:10.249Z</time>
      </trkpt>
      <trkpt lat="49.685951" lon="7.485640">
        <ele>430.220898</ele>
        <time>2022-03-09T07:59:16.236Z</time>
      </trkpt>
      <trkpt lat="49.686015" lon="7.485740">
        <ele>430.046978</ele>
        <time>2022-03-09T07:59:22.253Z</time>
      </trkpt>
      <trkpt lat="49.686099" lon="7.485818">
        <ele>429.859702</ele>
        <time>2022-03-09T07:59:28.267Z</time>
      </trkpt>
      <trkpt lat="49.686181" lon="7.485899">
        <ele>429.673720</ele>
        <time>2022-03-09T07:59:34.261Z</time>
      </trkpt>
      <trkpt lat="49.686267" lon="7.485994">
        <ele>429.471705</ele>
        <time>2022-03-09T07:59:41.268Z</time>
      </trkpt>
      <trkpt lat="49.686361" lon="7.486057">
        <ele>429.275898</ele>
        <time>2022-03-09T07:59:47.274Z</time>
      </trkpt>
      <trkpt lat="49.686453" lon="7.486111">
        <ele>429.087825</ele>
        <time>2022-03-09T07:59:53.275Z</time>
      </trkpt>
      <trkpt lat="49.686549" lon="7.486163">
        <ele>428.893418</ele>
        <time>2022-03-09T07:59:59.268Z</time>
      </trkpt>
      <trkpt lat="49.686634" lon="7.486211">
        <ele>428.720471</ele>
        <time>2022-03-09T08:00:05.259Z</time>
      </trkpt>
      <trkpt lat="49.686733" lon="7.486271">
        <ele>428.517245</ele>
        <time>2022-03-09T08:00:11.271Z</time>
      </trkpt>
      <trkpt lat="49.686824" lon="7.486315">
        <ele>428.573213</ele>
        <time>2022-03-09T08:00:17.250Z</time>
      </trkpt>
      <trkpt lat="49.686922" lon="7.486362">
        <ele>429.276218</ele>
        <time>2022-03-09T08:00:23.269Z</time>
      </trkpt>
      <trkpt lat="49.687016" lon="7.486415">
        <ele>429.961751</ele>
        <time>2022-03-09T08:00:30.265Z</time>
      </trkpt>
      <trkpt lat="49.687103" lon="7.486486">
        <ele>430.635794</ele>
        <time>2022-03-09T08:00:37.279Z</time>
      </trkpt>
      <trkpt lat="49.687200" lon="7.486534">
        <ele>431.333597</ele>
        <time>2022-03-09T08:00:43.282Z</time>
      </trkpt>
      <trkpt lat="49.687294" lon="7.486558">
        <ele>431.986347</ele>
        <time>2022-03-09T08:00:48.247Z</time>
      </trkpt>
      <trkpt lat="49.687396" lon="7.486571">
        <ele>432.687552</ele>
        <time>2022-03-09T08:00:55.245Z</time>
      </trkpt>
      <trkpt lat="49.687494" lon="7.486555">
        <ele>433.362715</ele>
        <time>2022-03-09T08:01:03.330Z</time>
      </trkpt>
      <trkpt lat="49.687586" lon="7.486557">
        <ele>433.993098</ele>
        <time>2022-03-09T08:01:10.263Z</time>
      </trkpt>
      <trkpt lat="49.687679" lon="7.486564">
        <ele>434.631024</ele>
        <time>2022-03-09T08:01:15.285Z</time>
      </trkpt>
      <trkpt lat="49.687773" lon="7.486542">
        <ele>435.282388</ele>
        <time>2022-03-09T08:01:21.326Z</time>
      </trkpt>
      <trkpt lat="49.687868" lon="7.486516">
        <ele>435.943386</ele>
        <time>2022-03-09T08:01:27.269Z</time>
      </trkpt>
      <trkpt lat="49.687969" lon="7.486497">
        <ele>436.640473</ele>
        <time>2022-03-09T08:01:33.251Z</time>
      </trkpt>
      <trkpt lat="49.688069" lon="7.486491">
        <ele>437.326120</ele>
        <time>2022-03-09T08:01:40.259Z</time>
      </trkpt>
      <trkpt lat="49.688163" lon="7.486471">
        <ele>437.976215</ele>
        <time>2022-03-09T08:01:47.264Z</time>
      </trkpt>
      <trkpt lat="49.688259" lon="7.486473">
        <ele>438.634000</ele>
        <time>2022-03-09T08:01:54.251Z</time>
      </trkpt>
      <trkpt lat="49.688357" lon="7.486507">
        <ele>439.322133</ele>
        <time>2022-03-09T08:02:01.281Z</time>
      </trkpt>
      <trkpt lat="49.688454" lon="7.486538">
        <ele>440.000766</ele>
        <time>2022-03-09T08:02:07.282Z</time>
      </trkpt>
      <trkpt lat="49.688546" lon="7.486567">
        <ele>440.644059</ele>
        <time>2022-03-09T08:02:12.252Z</time>
      </trkpt>
      <trkpt lat="49.688634" lon="7.486611">
        <ele>440.623987</ele>
        <time>2022-03-09T08:02:18.247Z</time>
      </trkpt>
      <trkpt lat="49.688692" lon="7.486720">
        <ele>440.529177</ele>
        <time>2022-03-09T08:02:26.251Z</time>
      </trkpt>
      <trkpt lat="49.688770" lon="7.486799">
        <ele>440.432344</ele>
        <time>2022-03-09T08:02:33.227Z</time>
      </trkpt>
      <trkpt lat="49.688843" lon="7.486892">
        <ele>440.334114</ele>
        <time>2022-03-09T08:02:39.216Z</time>
      </trkpt>
      <trkpt lat="49.688920" lon="7.486991">
        <ele>440.230114</ele>
        <time>2022-03-09T08:02:46.229Z</time>
      </trkpt>
      <trkpt lat="49.688989" lon="7.487089">
        <ele>440.132812</ele>
        <time>2022-03-09T08:02:52.249Z</time>
      </trkpt>
      <trkpt lat="49.689051" lon="7.487193">
        <ele>440.037808</ele>
        <time>2022-03-09T08:02:58.259Z</time>
      </trkpt>
      <trkpt lat="49.689103" lon="7.487337">
        <ele>439.927023</ele>
        <time>2022-03-09T08:03:05.262Z</time>
      </trkpt>
      <trkpt lat="49.689164" lon="7.487470">
        <ele>439.817502</ele>
        <time>2022-03-09T08:03:11.277Z</time>
      </trkpt>
      <trkpt lat="49.689231" lon="7.487566">
        <ele>439.722638</ele>
        <time>2022-03-09T08:03:16.259Z</time>
      </trkpt>
      <trkpt lat="49.689291" lon="7.487684">
        <ele>439.621815</ele>
        <time>2022-03-09T08:03:22.262Z</time>
      </trkpt>
      <trkpt lat="49.689336" lon="7.487805">
        <ele>439.528057</ele>
        <time>2022-03-09T08:03:28.256Z</time>
      </trkpt>
      <trkpt lat="49.689388" lon="7.487923">
        <ele>439.432146</ele>
        <time>2022-03-09T08:03:34.262Z</time>
      </trkpt>
      <trkpt lat="49.689433" lon="7.488044">
        <ele>439.338388</ele>
        <time>2022-03-09T08:03:40.267Z</time>
      </trkpt>
      <trkpt lat="49.689479" lon="7.488172">
        <ele>439.240025</ele>
        <time>2022-03-09T08:03:46.234Z</time>
      </trkpt>
      <trkpt lat="49.689539" lon="7.488302">
        <ele>439.132749</ele>
        <time>2022-03-09T08:03:52.254Z</time>
      </trkpt>
      <trkpt lat="49.689596" lon="7.488431">
        <ele>439.027807</ele>
        <time>2022-03-09T08:03:58.255Z</time>
      </trkpt>
      <trkpt lat="49.689650" lon="7.488563">
        <ele>438.922893</ele>
        <time>2022-03-09T08:04:05.240Z</time>
      </trkpt>
      <trkpt lat="49.689697" lon="7.488689">
        <ele>438.836698</ele>
        <time>2022-03-09T08:04:11.265Z</time>
      </trkpt>
      <trkpt lat="49.689751" lon="7.488803">
        <ele>438.805494</ele>
        <time>2022-03-09T08:04:17.362Z</time>
      </trkpt>
      <trkpt lat="49.689807" lon="7.488942">
        <ele>438.769329</ele>
        <time>2022-03-09T08:04:23.268Z</time>
      </trkpt>
      <trkpt lat="49.689876" lon="7.489069">
        <ele>438.732702</ele>
        <time>2022-03-09T08:04:29.264Z</time>
      </trkpt>
      <trkpt lat="49.689923" lon="7.489188">
        <ele>438.701910</ele>
        <time>2022-03-09T08:04:34.330Z</time>
      </trkpt>
      <trkpt lat="49.689970" lon="7.489324">
        <ele>438.667858</ele>
        <time>2022-03-09T08:04:41.269Z</time>
      </trkpt>
      <trkpt lat="49.690004" lon="7.489452">
        <ele>438.637299</ele>
        <time>2022-03-09T08:04:47.271Z</time>
      </trkpt>
      <trkpt lat="49.690059" lon="7.489567">
        <ele>438.605715</ele>
        <time>2022-03-09T08:04:53.271Z</time>
      </trkpt>
      <trkpt lat="49.690122" lon="7.489695">
        <ele>438.570195</ele>
        <time>2022-03-09T08:04:59.273Z</time>
      </trkpt>
      <trkpt lat="49.690176" lon="7.489830">
        <ele>438.535141</ele>
        <time>2022-03-09T08:05:05.269Z</time>
      </trkpt>
      <trkpt lat="49.690234" lon="7.489967">
        <ele>438.498982</ele>
        <time>2022-03-09T08:05:11.270Z</time>
      </trkpt>
      <trkpt lat="49.690288" lon="7.490097">
        <ele>438.464863</ele>
        <time>2022-03-09T08:05:17.271Z</time>
      </trkpt>
      <trkpt lat="49.690347" lon="7.490227">
        <ele>438.429792</ele>
        <time>2022-03-09T08:05:23.278Z</time>
      </trkpt>
      <trkpt lat="49.690422" lon="7.490329">
        <ele>438.395690</ele>
        <time>2022-03-09T08:05:29.273Z</time>
      </trkpt>
      <trkpt lat="49.690476" lon="7.490456">
        <ele>438.362126</ele>
        <time>2022-03-09T08:05:35.268Z</time>
      </trkpt>
      <trkpt lat="49.690513" lon="7.490587">
        <ele>438.330558</ele>
        <time>2022-03-09T08:05:41.259Z</time>
      </trkpt>
      <trkpt lat="49.690567" lon="7.490716">
        <ele>438.296625</ele>
        <time>2022-03-09T08:05:47.273Z</time>
      </trkpt>
      <trkpt lat="49.690628" lon="7.490838">
        <ele>438.262572</ele>
        <time>2022-03-09T08:05:54.244Z</time>
      </trkpt>
      <trkpt lat="49.690682" lon="7.490962">
        <ele>438.229560</ele>
        <time>2022-03-09T08:06:00.250Z</time>
      </trkpt>
      <trkpt lat="49.690736" lon="7.491086">
        <ele>437.887176</ele>
        <time>2022-03-09T08:06:06.261Z</time>
      </trkpt>
      <trkpt lat="49.690787" lon="7.491206">
        <ele>437.546587</ele>
        <time>2022-03-09T08:06:12.258Z</time>
      </trkpt>
      <trkpt lat="49.690847" lon="7.491337">
        <ele>437.165839</ele>
        <time>2022-03-09T08:06:18.263Z</time>
      </trkpt>
      <trkpt lat="49.690905" lon="7.491468">
        <ele>436.789281</ele>
        <time>2022-03-09T08:06:25.274Z</time>
      </trkpt>
      <trkpt lat="49.690956" lon="7.491593">
        <ele>436.438720</ele>
        <time>2022-03-09T08:06:31.329Z</time>
      </trkpt>
      <trkpt lat="49.691013" lon="7.491720">
        <ele>436.072056</ele>
        <time>2022-03-09T08:06:37.251Z</time>
      </trkpt>
      <trkpt lat="49.691068" lon="7.491835">
        <ele>435.732808</ele>
        <time>2022-03-09T08:06:44.266Z</time>
      </trkpt>
      <trkpt lat="49.691130" lon="7.491940">
        <ele>435.395581</ele>
        <time>2022-03-09T08:06:50.238Z</time>
      </trkpt>
      <trkpt lat="49.691190" lon="7.492068">
        <ele>435.020620</ele>
        <time>2022-03-09T08:06:56.268Z</time>
      </trkpt>
      <trkpt lat="49.691236" lon="7.492194">
        <ele>434.677424</ele>
        <time>2022-03-09T08:07:01.199Z</time>
      </trkpt>
      <trkpt lat="49.691287" lon="7.492315">
        <ele>434.334852</ele>
        <time>2022-03-09T08:07:07.256Z</time>
      </trkpt>
      <trkpt lat="49.691362" lon="7.492429">
        <ele>433.949159</ele>
        <time>2022-03-09T08:07:13.277Z</time>
      </trkpt>
      <trkpt lat="49.691422" lon="7.492540">
        <ele>433.606037</ele>
        <time>2022-03-09T08:07:19.269Z</time>
      </trkpt>
      <trkpt lat="49.691468" lon="7.492669">
        <ele>433.256627</ele>
        <time>2022-03-09T08:07:25.270Z</time>
      </trkpt>
      <trkpt lat="49.691521" lon="7.492786">
        <ele>432.917813</ele>
        <time>2022-03-09T08:07:31.251Z</time>
      </trkpt>
      <trkpt lat="49.691574" lon="7.492924">
        <ele>432.537122</ele>
        <time>2022-03-09T08:07:38.261Z</time>
      </trkpt>
      <trkpt lat="49.691626" lon="7.493050">
        <ele>432.182596</ele>
        <time>2022-03-09T08:07:44.243Z</time>
      </trkpt>
      <trkpt lat="49.691674" lon="7.493169">
        <ele>431.849941</ele>
        <time>2022-03-09T08:07:50.240Z</time>
      </trkpt>
      <trkpt lat="49.691732" lon="7.493293">
        <ele>431.393080</ele>
        <time>2022-03-09T08:07:56.308Z</time>
      </trkpt>
      <trkpt lat="49.691772" lon="7.493422">
        <ele>430.835525</ele>
        <time>2022-03-09T08:08:01.242Z</time>
      </trkpt>
      <trkpt lat="49.691814" lon="7.493572">
        <ele>430.198483</ele>
        <time>2022-03-09T08:08:07.260Z</time>
      </trkpt>
      <trkpt lat="49.691799" lon="7.493716">
        <ele>429.630010</ele>
        <time>2022-03-09T08:08:12.224Z</time>
      </trkpt>
      <trkpt lat="49.691764" lon="7.493854">
        <ele>429.052292</ele>
        <time>2022-03-09T08:08:17.228Z</time>
      </trkpt>
      <trkpt lat="49.691729" lon="7.493982">
        <ele>428.510673</ele>
        <time>2022-03-09T08:08:23.218Z</time>
      </trkpt>
      <trkpt lat="49.691685" lon="7.494106">
        <ele>427.959448</ele>
        <time>2022-03-09T08:08:28.258Z</time>
      </trkpt>
      <trkpt lat="49.691643" lon="7.494237">
        <ele>427.389605</ele>
        <time>2022-03-09T08:08:33.255Z</time>
      </trkpt>
      <trkpt lat="49.691594" lon="7.494383">
        <ele>426.748541</ele>
        <time>2022-03-09T08:08:39.248Z</time>
      </trkpt>
      <trkpt lat="49.691551" lon="7.494510">
        <ele>426.189855</ele>
        <time>2022-03-09T08:08:45.254Z</time>
      </trkpt>
      <trkpt lat="49.691514" lon="7.494639">
        <ele>425.639868</ele>
        <time>2022-03-09T08:08:51.248Z</time>
      </trkpt>
      <trkpt lat="49.691499" lon="7.494784">
        <ele>425.067544</ele>
        <time>2022-03-09T08:08:57.251Z</time>
      </trkpt>
      <trkpt lat="49.691474" lon="7.494930">
        <ele>424.478906</ele>
        <time>2022-03-09T08:09:03.253Z</time>
      </trkpt>
      <trkpt lat="49.691460" lon="7.495077">
        <ele>423.899791</ele>
        <time>2022-03-09T08:09:09.262Z</time>
      </trkpt>
      <trkpt lat="49.691447" lon="7.495226">
        <ele>423.313798</ele>
        <time>2022-03-09T08:09:15.323Z</time>
      </trkpt>
      <trkpt lat="49.691444" lon="7.495381">
        <ele>422.709408</ele>
        <time>2022-03-09T08:09:22.263Z</time>
      </trkpt>
      <trkpt lat="49.691437" lon="7.495540">
        <ele>422.088264</ele>
        <time>2022-03-09T08:09:28.270Z</time>
      </trkpt>
      <trkpt lat="49.691429" lon="7.495689">
        <ele>421.505532</ele>
        <time>2022-03-09T08:09:34.258Z</time>
      </trkpt>
      <trkpt lat="49.691427" lon="7.495827">
        <ele>420.967536</ele>
        <time>2022-03-09T08:09:40.325Z</time>
      </trkpt>
      <trkpt lat="49.691426" lon="7.495974">
        <ele>420.150830</ele>
        <time>2022-03-09T08:09:46.240Z</time>
      </trkpt>
      <trkpt lat="49.691441" lon="7.496128">
        <ele>419.175554</ele>
        <time>2022-03-09T08:09:53.277Z</time>
      </trkpt>
      <trkpt lat="49.691438" lon="7.496291">
        <ele>418.154373</ele>
        <time>2022-03-09T08:10:02.275Z</time>
      </trkpt>
      <trkpt lat="49.691370" lon="7.496402">
        <ele>417.197019</ele>
        <time>2022-03-09T08:10:08.221Z</time>
      </trkpt>
      <trkpt lat="49.691287" lon="7.496457">
        <ele>416.322822</ele>
        <time>2022-03-09T08:10:14.242Z</time>
      </trkpt>
      <trkpt lat="49.691193" lon="7.496515">
        <ele>415.343039</ele>
        <time>2022-03-09T08:10:20.260Z</time>
      </trkpt>
      <trkpt lat="49.691107" lon="7.496580">
        <ele>414.416326</ele>
        <time>2022-03-09T08:10:29.299Z</time>
      </trkpt>
      <trkpt lat="49.691019" lon="7.496632">
        <ele>413.504319</ele>
        <time>2022-03-09T08:10:34.257Z</time>
      </trkpt>
      <trkpt lat="49.690931" lon="7.496675">
        <ele>412.610883</ele>
        <time>2022-03-09T08:10:40.255Z</time>
      </trkpt>
      <trkpt lat="49.690831" lon="7.496725">
        <ele>411.593448</ele>
        <time>2022-03-09T08:10:46.258Z</time>
      </trkpt>
      <trkpt lat="49.690742" lon="7.496772">
        <ele>410.682991</ele>
        <time>2022-03-09T08:10:52.259Z</time>
      </trkpt>
      <trkpt lat="49.690652" lon="7.496835">
        <ele>409.726574</ele>
        <time>2022-03-09T08:10:58.266Z</time>
      </trkpt>
      <trkpt lat="49.690561" lon="7.496895">
        <ele>408.768856</ele>
        <time>2022-03-09T08:11:04.273Z</time>
      </trkpt>
      <trkpt lat="49.690463" lon="7.496950">
        <ele>407.759572</ele>
        <time>2022-03-09T08:11:10.255Z</time>
      </trkpt>
      <trkpt lat="49.690363" lon="7.497007">
        <ele>406.727801</ele>
        <time>2022-03-09T08:11:16.264Z</time>
      </trkpt>
      <trkpt lat="49.690277" lon="7.497069">
        <ele>405.809183</ele>
        <time>2022-03-09T08:11:22.266Z</time>
      </trkpt>
      <trkpt lat="49.690184" lon="7.497124">
        <ele>404.845253</ele>
        <time>2022-03-09T08:11:28.256Z</time>
      </trkpt>
      <trkpt lat="49.690095" lon="7.497182">
        <ele>403.910248</ele>
        <time>2022-03-09T08:11:34.260Z</time>
      </trkpt>
      <trkpt lat="49.690002" lon="7.497235">
        <ele>403.110450</ele>
        <time>2022-03-09T08:11:40.242Z</time>
      </trkpt>
      <trkpt lat="49.689908" lon="7.497305">
        <ele>402.472377</ele>
        <time>2022-03-09T08:11:47.266Z</time>
      </trkpt>
      <trkpt lat="49.689818" lon="7.497356">
        <ele>401.886177</ele>
        <time>2022-03-09T08:11:53.351Z</time>
      </trkpt>
      <trkpt lat="49.689719" lon="7.497418">
        <ele>401.232956</ele>
        <time>2022-03-09T08:11:59.281Z</time>
      </trkpt>
      <trkpt lat="49.689620" lon="7.497473">
        <ele>400.589621</ele>
        <time>2022-03-09T08:12:05.290Z</time>
      </trkpt>
      <trkpt lat="49.689529" lon="7.497537">
        <ele>399.978231</ele>
        <time>2022-03-09T08:12:11.277Z</time>
      </trkpt>
      <trkpt lat="49.689435" lon="7.497599">
        <ele>399.353243</ele>
        <time>2022-03-09T08:12:17.349Z</time>
      </trkpt>
      <trkpt lat="49.689351" lon="7.497674">
        <ele>398.760016</ele>
        <time>2022-03-09T08:12:23.270Z</time>
      </trkpt>
      <trkpt lat="49.689299" lon="7.497803">
        <ele>398.158698</ele>
        <time>2022-03-09T08:12:29.234Z</time>
      </trkpt>
      <trkpt lat="49.689369" lon="7.497917">
        <ele>397.536880</ele>
        <time>2022-03-09T08:12:34.235Z</time>
      </trkpt>
      <trkpt lat="49.689433" lon="7.498046">
        <ele>396.893732</ele>
        <time>2022-03-09T08:12:40.261Z</time>
      </trkpt>
      <trkpt lat="49.689470" lon="7.498173">
        <ele>396.342695</ele>
        <time>2022-03-09T08:12:46.255Z</time>
      </trkpt>
      <trkpt lat="49.689503" lon="7.498304">
        <ele>395.786527</ele>
        <time>2022-03-09T08:12:52.269Z</time>
      </trkpt>
      <trkpt lat="49.689536" lon="7.498435">
        <ele>395.230359</ele>
        <time>2022-03-09T08:12:58.259Z</time>
      </trkpt>
      <trkpt lat="49.689579" lon="7.498564">
        <ele>394.656246</ele>
        <time>2022-03-09T08:13:04.265Z</time>
      </trkpt>
      <trkpt lat="49.689618" lon="7.498705">
        <ele>394.049575</ele>
        <time>2022-03-09T08:13:10.274Z</time>
      </trkpt>
      <trkpt lat="49.689658" lon="7.498839">
        <ele>393.465731</ele>
        <time>2022-03-09T08:13:16.253Z</time>
      </trkpt>
      <trkpt lat="49.689713" lon="7.498976">
        <ele>392.827852</ele>
        <time>2022-03-09T08:13:23.283Z</time>
      </trkpt>
      <trkpt lat="49.689724" lon="7.499125">
        <ele>392.396537</ele>
        <time>2022-03-09T08:13:30.225Z</time>
      </trkpt>
      <trkpt lat="49.689765" lon="7.499248">
        <ele>392.438201</ele>
        <time>2022-03-09T08:13:35.287Z</time>
      </trkpt>
      <trkpt lat="49.689822" lon="7.499383">
        <ele>392.486742</ele>
        <time>2022-03-09T08:13:41.297Z</time>
      </trkpt>
      <trkpt lat="49.689865" lon="7.499512">
        <ele>392.530438</ele>
        <time>2022-03-09T08:13:47.286Z</time>
      </trkpt>
      <trkpt lat="49.689901" lon="7.499642">
        <ele>392.573017</ele>
        <time>2022-03-09T08:13:53.283Z</time>
      </trkpt>
      <trkpt lat="49.689963" lon="7.499768">
        <ele>392.620684</ele>
        <time>2022-03-09T08:13:59.299Z</time>
      </trkpt>
      <trkpt lat="49.690015" lon="7.499896">
        <ele>392.666195</ele>
        <time>2022-03-09T08:14:05.288Z</time>
      </trkpt>
      <trkpt lat="49.690062" lon="7.500019">
        <ele>392.709209</ele>
        <time>2022-03-09T08:14:11.292Z</time>
      </trkpt>
      <trkpt lat="49.690115" lon="7.500133">
        <ele>392.751480</ele>
        <time>2022-03-09T08:14:17.272Z</time>
      </trkpt>
      <trkpt lat="49.690161" lon="7.500264">
        <ele>392.796361</ele>
        <time>2022-03-09T08:14:25.273Z</time>
      </trkpt>
      <trkpt lat="49.690212" lon="7.500386">
        <ele>392.840098</ele>
        <time>2022-03-09T08:14:31.369Z</time>
      </trkpt>
      <trkpt lat="49.690278" lon="7.500495">
        <ele>392.885052</ele>
        <time>2022-03-09T08:14:36.256Z</time>
      </trkpt>
      <trkpt lat="49.690363" lon="7.500562">
        <ele>392.929461</ele>
        <time>2022-03-09T08:14:43.235Z</time>
      </trkpt>
      <trkpt lat="49.690396" lon="7.500404">
        <ele>392.979454</ele>
        <time>2022-03-09T08:14:49.297Z</time>
      </trkpt>
      <trkpt lat="49.690417" lon="7.500243">
        <ele>393.028907</ele>
        <time>2022-03-09T08:14:55.336Z</time>
      </trkpt>
      <trkpt lat="49.690452" lon="7.500105">
        <ele>393.073539</ele>
        <time>2022-03-09T08:15:01.281Z</time>
      </trkpt>
      <trkpt lat="49.690483" lon="7.499973">
        <ele>393.115822</ele>
        <time>2022-03-09T08:15:07.261Z</time>
      </trkpt>
      <trkpt lat="49.690523" lon="7.499841">
        <ele>393.159712</ele>
        <time>2022-03-09T08:15:14.281Z</time>
      </trkpt>
      <trkpt lat="49.690606" lon="7.499776">
        <ele>393.203019</ele>
        <time>2022-03-09T08:15:22.243Z</time>
      </trkpt>
      <trkpt lat="49.690683" lon="7.499864">
        <ele>393.541419</ele>
        <time>2022-03-09T08:15:26.222Z</time>
      </trkpt>
      <trkpt lat="49.690749" lon="7.499961">
        <ele>394.075278</ele>
        <time>2022-03-09T08:15:30.270Z</time>
      </trkpt>
      <trkpt lat="49.690831" lon="7.500066">
        <ele>394.699474</ele>
        <time>2022-03-09T08:15:36.282Z</time>
      </trkpt>
      <trkpt lat="49.690903" lon="7.500156">
        <ele>395.242275</ele>
        <time>2022-03-09T08:15:42.241Z</time>
      </trkpt>
      <trkpt lat="49.690966" lon="7.500271">
        <ele>395.813750</ele>
        <time>2022-03-09T08:15:49.272Z</time>
      </trkpt>
      <trkpt lat="49.691024" lon="7.500399">
        <ele>396.406391</ele>
        <time>2022-03-09T08:15:56.281Z</time>
      </trkpt>
      <trkpt lat="49.691099" lon="7.500500">
        <ele>396.989488</ele>
        <time>2022-03-09T08:16:04.259Z</time>
      </trkpt>
      <trkpt lat="49.691164" lon="7.500610">
        <ele>397.554467</ele>
        <time>2022-03-09T08:16:10.279Z</time>
      </trkpt>
      <trkpt lat="49.691245" lon="7.500708">
        <ele>398.157443</ele>
        <time>2022-03-09T08:16:17.288Z</time>
      </trkpt>
      <trkpt lat="49.691318" lon="7.500821">
        <ele>398.763049</ele>
        <time>2022-03-09T08:16:25.270Z</time>
      </trkpt>
      <trkpt lat="49.691392" lon="7.500936">
        <ele>399.378166</ele>
        <time>2022-03-09T08:16:32.256Z</time>
      </trkpt>
      <trkpt lat="49.691471" lon="7.501034">
        <ele>399.971952</ele>
        <time>2022-03-09T08:16:38.260Z</time>
      </trkpt>
      <trkpt lat="49.691552" lon="7.501114">
        <ele>400.535426</ele>
        <time>2022-03-09T08:16:44.262Z</time>
      </trkpt>
      <trkpt lat="49.691635" lon="7.501221">
        <ele>401.168973</ele>
        <time>2022-03-09T08:16:51.283Z</time>
      </trkpt>
      <trkpt lat="49.691733" lon="7.501264">
        <ele>401.766154</ele>
        <time>2022-03-09T08:16:57.295Z</time>
      </trkpt>
      <trkpt lat="49.691821" lon="7.501329">
        <ele>402.337885</ele>
        <time>2022-03-09T08:17:04.261Z</time>
      </trkpt>
      <trkpt lat="49.691915" lon="7.501386">
        <ele>402.929803</ele>
        <time>2022-03-09T08:17:10.267Z</time>
      </trkpt>
      <trkpt lat="49.692018" lon="7.501418">
        <ele>403.545674</ele>
        <time>2022-03-09T08:17:16.487Z</time>
      </trkpt>
      <trkpt lat="49.692116" lon="7.501412">
        <ele>403.807278</ele>
        <time>2022-03-09T08:17:20.274Z</time>
      </trkpt>
      <trkpt lat="49.692213" lon="7.501419">
        <ele>403.873406</ele>
        <time>2022-03-09T08:17:27.236Z</time>
      </trkpt>
      <trkpt lat="49.692309" lon="7.501427">
        <ele>403.938876</ele>
        <time>2022-03-09T08:17:33.271Z</time>
      </trkpt>
      <trkpt lat="49.692395" lon="7.501520">
        <ele>404.010349</ele>
        <time>2022-03-09T08:17:43.287Z</time>
      </trkpt>
      <trkpt lat="49.692487" lon="7.501586">
        <ele>404.079417</ele>
        <time>2022-03-09T08:17:48.289Z</time>
      </trkpt>
      <trkpt lat="49.692579" lon="7.501623">
        <ele>404.144154</ele>
        <time>2022-03-09T08:17:54.200Z</time>
      </trkpt>
      <trkpt lat="49.692675" lon="7.501639">
        <ele>404.209908</ele>
        <time>2022-03-09T08:18:09.224Z</time>
      </trkpt>
      <trkpt lat="49.692674" lon="7.501490">
        <ele>404.275549</ele>
        <time>2022-03-09T08:18:18.222Z</time>
      </trkpt>
      <trkpt lat="49.692653" lon="7.501355">
        <ele>404.336715</ele>
        <time>2022-03-09T08:18:23.272Z</time>
      </trkpt>
      <trkpt lat="49.692661" lon="7.501199">
        <ele>404.405652</ele>
        <time>2022-03-09T08:18:29.236Z</time>
      </trkpt>
      <trkpt lat="49.692696" lon="7.501056">
        <ele>404.473005</ele>
        <time>2022-03-09T08:18:35.207Z</time>
      </trkpt>
      <trkpt lat="49.692773" lon="7.500966">
        <ele>404.538743</ele>
        <time>2022-03-09T08:18:51.264Z</time>
      </trkpt>
      <trkpt lat="49.692849" lon="7.500885">
        <ele>404.601607</ele>
        <time>2022-03-09T08:18:57.389Z</time>
      </trkpt>
      <trkpt lat="49.692934" lon="7.500824">
        <ele>404.665424</ele>
        <time>2022-03-09T08:19:03.205Z</time>
      </trkpt>
      <trkpt lat="49.692997" lon="7.500933">
        <ele>404.729815</ele>
        <time>2022-03-09T08:19:08.200Z</time>
      </trkpt>
      <trkpt lat="49.693047" lon="7.501071">
        <ele>404.799493</ele>
        <time>2022-03-09T08:19:14.203Z</time>
      </trkpt>
      <trkpt lat="49.693079" lon="7.501201">
        <ele>404.860766</ele>
        <time>2022-03-09T08:19:20.271Z</time>
      </trkpt>
      <trkpt lat="49.693113" lon="7.501348">
        <ele>404.929538</ele>
        <time>2022-03-09T08:19:26.267Z</time>
      </trkpt>
      <trkpt lat="49.693165" lon="7.501475">
        <ele>404.956000</ele>
        <time>2022-03-09T08:19:33.266Z</time>
      </trkpt>
      <trkpt lat="49.693192" lon="7.501617">
        <ele>404.480993</ele>
        <time>2022-03-09T08:19:40.252Z</time>
      </trkpt>
      <trkpt lat="49.693211" lon="7.501768">
        <ele>403.987298</ele>
        <time>2022-03-09T08:19:46.313Z</time>
      </trkpt>
      <trkpt lat="49.693211" lon="7.501929">
        <ele>403.470593</ele>
        <time>2022-03-09T08:19:53.285Z</time>
      </trkpt>
      <trkpt lat="49.693145" lon="7.502029">
        <ele>403.012096</ele>
        <time>2022-03-09T08:19:59.329Z</time>
      </trkpt>
      <trkpt lat="49.693053" lon="7.502067">
        <ele>402.539647</ele>
        <time>2022-03-09T08:20:05.278Z</time>
      </trkpt>
      <trkpt lat="49.692978" lon="7.502148">
        <ele>402.085738</ele>
        <time>2022-03-09T08:20:12.268Z</time>
      </trkpt>
      <trkpt lat="49.692928" lon="7.502283">
        <ele>401.586485</ele>
        <time>2022-03-09T08:20:18.219Z</time>
      </trkpt>
      <trkpt lat="49.692935" lon="7.502431">
        <ele>401.110230</ele>
        <time>2022-03-09T08:20:24.237Z</time>
      </trkpt>
      <trkpt lat="49.692996" lon="7.502552">
        <ele>400.617896</ele>
        <time>2022-03-09T08:20:31.220Z</time>
      </trkpt>
      <trkpt lat="49.693061" lon="7.502679">
        <ele>400.098162</ele>
        <time>2022-03-09T08:20:35.306Z</time>
      </trkpt>
      <trkpt lat="49.693132" lon="7.502768">
        <ele>399.644657</ele>
        <time>2022-03-09T08:20:40.274Z</time>
      </trkpt>
      <trkpt lat="49.693216" lon="7.502864">
        <ele>399.126388</ele>
        <time>2022-03-09T08:20:45.256Z</time>
      </trkpt>
      <trkpt lat="49.693239" lon="7.503001">
        <ele>398.672141</ele>
        <time>2022-03-09T08:20:52.249Z</time>
      </trkpt>
      <trkpt lat="49.693314" lon="7.503107">
        <ele>398.167974</ele>
        <time>2022-03-09T08:20:58.260Z</time>
      </trkpt>
      <trkpt lat="49.693394" lon="7.503184">
        <ele>397.700428</ele>
        <time>2022-03-09T08:21:05.269Z</time>
      </trkpt>
      <trkpt lat="49.693473" lon="7.503260">
        <ele>397.238790</ele>
        <time>2022-03-09T08:21:11.286Z</time>
      </trkpt>
      <trkpt lat="49.693554" lon="7.503327">
        <ele>396.783016</ele>
        <time>2022-03-09T08:21:16.261Z</time>
      </trkpt>
      <trkpt lat="49.693618" lon="7.503438">
        <ele>396.305812</ele>
        <time>2022-03-09T08:21:22.293Z</time>
      </trkpt>
      <trkpt lat="49.693687" lon="7.503543">
        <ele>396.067387</ele>
        <time>2022-03-09T08:21:29.338Z</time>
      </trkpt>
      <trkpt lat="49.693769" lon="7.503615">
        <ele>396.067387</ele>
        <time>2022-03-09T08:21:35.243Z</time>
      </trkpt>
      <trkpt lat="49.693856" lon="7.503688">
        <ele>396.067387</ele>
        <time>2022-03-09T08:21:41.234Z</time>
      </trkpt>
      <trkpt lat="49.693916" lon="7.503795">
        <ele>396.067387</ele>
        <time>2022-03-09T08:21:47.253Z</time>
      </trkpt>
      <trkpt lat="49.693979" lon="7.503905">
        <ele>396.067387</ele>
        <time>2022-03-09T08:21:54.269Z</time>
      </trkpt>
      <trkpt lat="49.694064" lon="7.503969">
        <ele>396.067387</ele>
        <time>2022-03-09T08:22:01.270Z</time>
      </trkpt>
      <trkpt lat="49.694155" lon="7.504057">
        <ele>396.067387</ele>
        <time>2022-03-09T08:22:06.263Z</time>
      </trkpt>
      <trkpt lat="49.694234" lon="7.504137">
        <ele>396.067387</ele>
        <time>2022-03-09T08:22:10.256Z</time>
      </trkpt>
      <trkpt lat="49.694293" lon="7.504261">
        <ele>396.067387</ele>
        <time>2022-03-09T08:22:16.260Z</time>
      </trkpt>
      <trkpt lat="49.694339" lon="7.504399">
        <ele>396.067387</ele>
        <time>2022-03-09T08:22:22.262Z</time>
      </trkpt>
      <trkpt lat="49.694424" lon="7.504484">
        <ele>396.067387</ele>
        <time>2022-03-09T08:22:28.276Z</time>
      </trkpt>
      <trkpt lat="49.694508" lon="7.504537">
        <ele>396.067387</ele>
        <time>2022-03-09T08:22:34.280Z</time>
      </trkpt>
      <trkpt lat="49.694598" lon="7.504603">
        <ele>396.067387</ele>
        <time>2022-03-09T08:22:39.334Z</time>
      </trkpt>
      <trkpt lat="49.694644" lon="7.504734">
        <ele>396.067387</ele>
        <time>2022-03-09T08:22:45.260Z</time>
      </trkpt>
      <trkpt lat="49.694716" lon="7.504852">
        <ele>396.067387</ele>
        <time>2022-03-09T08:22:52.269Z</time>
      </trkpt>
      <trkpt lat="49.694794" lon="7.504939">
        <ele>396.067387</ele>
        <time>2022-03-09T08:22:58.272Z</time>
      </trkpt>
      <trkpt lat="49.694865" lon="7.505027">
        <ele>396.067387</ele>
        <time>2022-03-09T08:23:05.262Z</time>
      </trkpt>
      <trkpt lat="49.694918" lon="7.505166">
        <ele>396.067387</ele>
        <time>2022-03-09T08:23:26.295Z</time>
      </trkpt>
      <trkpt lat="49.694993" lon="7.505281">
        <ele>396.067387</ele>
        <time>2022-03-09T08:23:32.285Z</time>
      </trkpt>
      <trkpt lat="49.695079" lon="7.505369">
        <ele>396.067387</ele>
        <time>2022-03-09T08:23:39.256Z</time>
      </trkpt>
      <trkpt lat="49.695095" lon="7.505521">
        <ele>396.067387</ele>
        <time>2022-03-09T08:23:48.255Z</time>
      </trkpt>
      <trkpt lat="49.695057" lon="7.505671">
        <ele>396.067387</ele>
        <time>2022-03-09T08:23:55.287Z</time>
      </trkpt>
      <trkpt lat="49.695061" lon="7.505698">
        <ele>396.067387</ele>
        <time>2022-03-09T08:23:58.029Z</time>
      </trkpt>
    </trkseg>
  </trk>
</gpx>